BE881 / ES-ATA 7700 Squawk Report (22nd of June, 2019)

Aircraft AT76 Reg No. ES-ATA Age 6 years old
Model ATR 72 Turboprop engines 2 First flight 12-12-12
Registered 10-04-19 Rollout N/A Delivered 08-01-13
Construction No. 1038 Line No. N/A Series 600
ADSHEX 5110DD Airline name FlyBE Owner Regional Jet OU
Airfield based Glasgow~Renfrewshire~G First tracked 2017-08-23 11:29:00

Flight history for ES-ATA

Route Flight No Date Playback
Belfast City (BHD) - Edinburgh (EDI) BE694 2019-07-23 20:39:00
???? N/A 2019-07-23 19:54:00
???? N/A 2019-07-23 18:36:00
East Midlands Airport (EMA) - Belfast City (BHD) BE366 2019-07-23 16:38:00
Belfast City (BHD) - Birmingham (BHX) BE409 2019-07-23 14:52:00
Schiphol (AMS) - Manchester (MAN) BE1274 2019-07-23 13:52:00
Birmingham (BHX) - Charles De Gaulle (CDG) BE3009 2019-07-23 12:03:00
Glasgow (GLA) - Belfast City (BHD) BE124 2019-07-23 09:32:00
???? BE7047 2019-07-23 08:11:00
Glasgow (GLA) - Belfast City (BHD) N/A 2019-07-23 07:34:00
Belfast City (BHD) - Edinburgh (EDI) BE694 2019-07-23 06:55:00
???? N/A 2019-07-22 19:15:00
???? N/A 2019-07-22 17:57:00
East Midlands Airport (EMA) - Belfast City (BHD) BE366 2019-07-22 16:30:00
Belfast City (BHD) - Birmingham (BHX) BE409 2019-07-22 15:27:00
Schiphol (AMS) - Manchester (MAN) BE1274 2019-07-22 13:37:00
Birmingham (BHX) - Charles De Gaulle (CDG) BE3009 2019-07-22 11:08:00
Glasgow (GLA) - Belfast City (BHD) BE124 2019-07-22 09:53:00
???? BE7047 2019-07-22 09:12:00
Gatwick (LGW) - Newquay Cornwall (NQY) BE103 2019-07-22 08:02:00
Time Lat Lon Altitude Heading Speed Vertical Rate
2019-06-22 07:01:43 GMT 55.865643 -4.432855 0 253 0 0
2019-06-22 07:01:32 GMT 55.865639 -4.432838 0 253 0 0
2019-06-22 07:01:23 GMT 55.865639 -4.432859 0 253 0 0
2019-06-22 07:01:01 GMT 55.865643 -4.432855 0 253 0 0
2019-06-22 07:00:53 GMT 55.865650 -4.432817 0 253 3 0
2019-06-22 07:00:38 GMT 55.865780 -4.432039 0 239 8 0
2019-06-22 07:00:28 GMT 55.866188 -4.432061 0 163 14 0
2019-06-22 06:59:22 GMT 55.867470 -4.437436 0 129 11 0
2019-06-22 06:59:13 GMT 55.867771 -4.437726 0 194 7 0
2019-06-22 06:59:10 GMT 55.867840 -4.437704 0 194 8 0
2019-06-22 06:59:00 GMT 55.868423 -4.437339 0 199 18 0
2019-06-22 06:58:46 GMT 55.869598 -4.436781 0 171 19 0
2019-06-22 06:58:40 GMT 55.870110 -4.436631 0 216 29 0
2019-06-22 06:58:25 GMT 55.873344 -4.430580 0 227 111 0
2019-06-22 06:58:18 GMT 55.876141 -4.425430 -200 227 127 -832
2019-06-22 06:58:09 GMT 55.879768 -4.418564 -100 227 132 -576
2019-06-22 06:57:57 GMT 55.885117 -4.408680 50 227 132 -768
2019-06-22 06:57:52 GMT 55.887360 -4.404573 100 227 131 -640
2019-06-22 06:57:49 GMT 55.888550 -4.402355 150 227 132 -704
2019-06-22 06:57:39 GMT 55.892807 -4.394365 275 228 132 -896
2019-06-22 06:57:33 GMT 55.895233 -4.389787 350 227 135 -896
2019-06-22 06:57:28 GMT 55.897552 -4.385433 425 226 136 -896
2019-06-22 06:57:23 GMT 55.899765 -4.381298 500 227 135 -832
2019-06-22 06:57:19 GMT 55.901604 -4.377880 550 227 134 -896
2019-06-22 06:57:13 GMT 55.903976 -4.373474 650 227 131 -1024
2019-06-22 06:57:10 GMT 55.905441 -4.370728 700 227 131 -1024
2019-06-22 06:57:06 GMT 55.906956 -4.367924 875 226 130 -896
2019-06-22 06:57:00 GMT 55.909470 -4.363375 850 225 128 -1024
2019-06-22 06:56:56 GMT 55.911007 -4.360628 900 225 128 -1024
2019-06-22 06:56:52 GMT 55.913086 -4.356828 1,000 226 126 -768
2019-06-22 06:56:47 GMT 55.914871 -4.353582 1,050 228 125 -384
2019-06-22 06:56:41 GMT 55.917618 -4.348269 1,150 227 132 -384
2019-06-22 06:56:37 GMT 55.918945 -4.345842 1,125 227 129 -512
2019-06-22 06:56:32 GMT 55.920921 -4.342089 1,175 227 133 -448
2019-06-22 06:56:29 GMT 55.922241 -4.339516 1,200 228 135 -704
2019-06-22 06:56:22 GMT 55.925297 -4.333591 1,275 227 142 -704
2019-06-22 06:56:17 GMT 55.927765 -4.329128 1,350 225 148 -1088
2019-06-22 06:56:11 GMT 55.930370 -4.324579 1,450 225 149 -1216
2019-06-22 06:56:07 GMT 55.932884 -4.320202 1,550 226 147 -896
2019-06-22 06:56:03 GMT 55.934841 -4.316425 1,625 228 148 -576
2019-06-22 06:55:57 GMT 55.937119 -4.312051 1,650 227 156 -768
2019-06-22 06:55:51 GMT 55.940380 -4.305954 1,725 227 159 -704
2019-06-22 06:55:44 GMT 55.943687 -4.299774 1,800 227 164 -1472
2019-06-22 06:55:40 GMT 55.946136 -4.295155 1,975 227 164 -1408
2019-06-22 06:55:37 GMT 55.947372 -4.292741 2,000 227 164 -1344
2019-06-22 06:55:34 GMT 55.948898 -4.289818 2,075 227 164 -1216
2019-06-22 06:55:30 GMT 55.951229 -4.285440 2,150 227 166 -704
2019-06-22 06:55:24 GMT 55.954788 -4.278759 2,225 227 166 -576
2019-06-22 06:55:20 GMT 55.956444 -4.275656 2,275 228 169 -384
2019-06-22 06:55:17 GMT 55.958176 -4.272350 2,275 228 171 -384
2019-06-22 06:55:14 GMT 55.959747 -4.269218 2,300 229 172 -512
2019-06-22 06:55:11 GMT 55.961472 -4.265775 2,325 229 172 -640
2019-06-22 06:55:08 GMT 55.962662 -4.263278 2,350 229 171 -704
2019-06-22 06:55:04 GMT 55.965225 -4.258118 2,375 230 171 -768
2019-06-22 06:55:01 GMT 55.966961 -4.254456 2,500 230 168 -448
2019-06-22 06:54:57 GMT 55.969055 -4.250078 2,500 230 168 -448
2019-06-22 06:54:50 GMT 55.972321 -4.243386 2,550 229 167 -448
2019-06-22 06:54:47 GMT 55.973373 -4.241222 2,575 229 169 -448
2019-06-22 06:54:44 GMT 55.975479 -4.236977 2,600 229 171 -512
2019-06-22 06:54:40 GMT 55.977997 -4.231625 2,625 234 178 -768
2019-06-22 06:54:34 GMT 55.980881 -4.224415 2,675 236 180 -832
2019-06-22 06:54:30 GMT 55.982254 -4.220415 2,800 241 185 -768
2019-06-22 06:54:27 GMT 55.983860 -4.215317 2,800 255 180 -768
2019-06-22 06:54:23 GMT 55.984772 -4.211759 2,900 258 181 -768
2019-06-22 06:54:20 GMT 55.985779 -4.206682 2,875 253 180 -768
2019-06-22 06:54:17 GMT 55.986282 -4.202853 2,875 260 181 -768
2019-06-22 06:54:13 GMT 55.986649 -4.196861 2,950 270 185 -576
2019-06-22 06:54:10 GMT 55.986694 -4.191784 3,000 271 189 -576
2019-06-22 06:54:03 GMT 55.986561 -4.179611 3,075 272 194 -448
2019-06-22 06:54:00 GMT 55.986465 -4.174805 3,100 272 195 -192
2019-06-22 06:53:57 GMT 55.986420 -4.171475 3,100 273 196 -320
2019-06-22 06:53:53 GMT 55.986191 -4.164817 3,100 274 197 -448
2019-06-22 06:53:49 GMT 55.985687 -4.158658 3,200 283 199 -640
2019-06-22 06:53:46 GMT 55.985023 -4.153776 3,200 287 200 -640
2019-06-22 06:53:42 GMT 55.983627 -4.147253 3,225 293 202 -576
2019-06-22 06:53:39 GMT 55.982117 -4.142345 3,250 311 209 -768
2019-06-22 06:53:36 GMT 55.980694 -4.138842 3,300 308 208 -768
2019-06-22 06:53:33 GMT 55.978592 -4.134771 3,325 318 213 -768
2019-06-22 06:53:29 GMT 55.973152 -4.127769 3,400 330 217 -640
2019-06-22 06:53:23 GMT 55.970081 -4.125195 3,450 338 216 -448
2019-06-22 06:53:20 GMT 55.967239 -4.123285 3,475 341 216 -448
2019-06-22 06:53:17 GMT 55.965240 -4.122105 3,500 342 217 -448
2019-06-22 06:53:11 GMT 55.959045 -4.118375 3,550 342 222 -768
2019-06-22 06:53:08 GMT 55.955658 -4.116294 3,600 342 227 -960
2019-06-22 06:53:05 GMT 55.952545 -4.114380 3,650 342 230 -1152
2019-06-22 06:53:02 GMT 55.950298 -4.113007 3,675 342 232 -1600
2019-06-22 06:52:59 GMT 55.945969 -4.110432 3,825 342 234 -2432
2019-06-22 06:52:56 GMT 55.943501 -4.109058 3,900 343 234 -2240
2019-06-22 06:52:53 GMT 55.937210 -4.105391 4,100 342 235 -1536
2019-06-22 06:52:50 GMT 55.937210 -4.105391 4,150 342 236 -1344
2019-06-22 06:52:47 GMT 55.934555 -4.103810 4,275 342 237 -1216
2019-06-22 06:52:43 GMT 55.930000 -4.100990 4,350 341 242 -896
2019-06-22 06:52:39 GMT 55.925812 -4.098330 4,325 341 242 -896
2019-06-22 06:52:36 GMT 55.921921 -4.095903 4,400 341 245 -1024
2019-06-22 06:52:31 GMT 55.916687 -4.092579 4,450 341 247 -1024
2019-06-22 06:52:27 GMT 55.913040 -4.090160 4,525 341 248 -896
2019-06-22 06:52:24 GMT 55.910168 -4.088373 4,575 341 248 -768
2019-06-22 06:52:21 GMT 55.905560 -4.085369 4,625 341 246 -896
2019-06-22 06:52:18 GMT 55.902786 -4.083502 4,725 341 245 -1088
2019-06-22 06:52:15 GMT 55.900021 -4.081764 4,700 341 245 -1216
2019-06-22 06:52:12 GMT 55.896103 -4.079340 4,775 341 245 -1472
2019-06-22 06:52:09 GMT 55.893456 -4.077644 4,825 341 245 -1408
2019-06-22 06:52:05 GMT 55.889099 -4.074846 4,925 341 245 -1216
2019-06-22 06:52:02 GMT 55.885574 -4.072515 5,000 341 245 -1088
2019-06-22 06:51:59 GMT 55.882797 -4.070778 5,050 341 246 -1024
2019-06-22 06:51:55 GMT 55.878468 -4.067945 5,125 341 246 -896
2019-06-22 06:51:50 GMT 55.872879 -4.064426 5,175 341 245 -768
2019-06-22 06:51:47 GMT 55.870148 -4.062694 5,200 341 243 -704
2019-06-22 06:51:44 GMT 55.865479 -4.059781 5,225 341 243 -704
2019-06-22 06:51:39 GMT 55.860779 -4.056959 5,350 342 243 -1088
2019-06-22 06:51:34 GMT 55.856728 -4.054470 5,400 342 244 -1600
2019-06-22 06:51:28 GMT 55.849510 -4.050093 5,525 341 245 -1536
2019-06-22 06:51:24 GMT 55.845554 -4.047604 5,675 341 247 -1472
2019-06-22 06:51:20 GMT 55.840393 -4.044467 5,850 342 249 -1152
2019-06-22 06:51:16 GMT 55.836273 -4.041970 5,900 342 248 -1024
2019-06-22 06:51:13 GMT 55.833984 -4.040555 5,925 342 248 -1024
2019-06-22 06:51:09 GMT 55.828983 -4.037561 6,000 339 247 -1024
2019-06-22 06:51:06 GMT 55.826187 -4.035587 6,050 337 247 -1088
2019-06-22 06:51:03 GMT 55.823364 -4.033397 6,075 336 246 -960
2019-06-22 06:50:58 GMT 55.812607 -4.024741 6,200 336 245 -64
2019-06-22 06:50:53 GMT 55.812607 -4.024741 6,200 336 245 -64
2019-06-22 06:50:49 GMT 55.808395 -4.021246 6,200 336 245 -64
2019-06-22 06:50:46 GMT 55.805332 -4.018679 6,200 336 245 -384
2019-06-22 06:50:43 GMT 55.802216 -4.016169 6,200 336 245 -192
2019-06-22 06:50:37 GMT 55.796173 -4.011341 6,250 337 245 -1280
2019-06-22 06:50:34 GMT 55.792858 -4.008808 6,300 337 245 -1280
2019-06-22 06:50:29 GMT 55.787132 -4.004259 6,425 336 245 -1344
2019-06-22 06:50:25 GMT 55.782475 -4.000568 6,600 336 244 -768
2019-06-22 06:50:22 GMT 55.780521 -3.999023 6,550 336 244 -1024
2019-06-22 06:50:18 GMT 55.776901 -3.996027 6,650 335 245 -640
2019-06-22 06:50:15 GMT 55.772701 -3.992586 6,675 335 244 -704
2019-06-22 06:50:12 GMT 55.770557 -3.990698 6,675 334 243 -768
2019-06-22 06:50:08 GMT 55.766460 -3.986921 6,750 331 240 -768
2019-06-22 06:50:05 GMT 55.763203 -3.983660 6,800 332 237 -896
2019-06-22 06:50:02 GMT 55.760784 -3.981256 6,825 332 237 -960
2019-06-22 06:49:58 GMT 55.756268 -3.976879 6,900 332 237 -1088
2019-06-22 06:49:55 GMT 55.752960 -3.973703 6,950 332 238 -1088
2019-06-22 06:49:52 GMT 55.750866 -3.971643 7,000 332 239 -896
2019-06-22 06:49:48 GMT 55.746643 -3.967479 7,075 332 241 -704
2019-06-22 06:49:45 GMT 55.744308 -3.965232 7,125 332 242 -576
2019-06-22 06:49:42 GMT 55.740784 -3.961737 7,150 332 243 -512
2019-06-22 06:49:37 GMT 55.735130 -3.956194 7,200 331 246 -704
2019-06-22 06:49:33 GMT 55.731316 -3.952417 7,250 331 248 -1024
2019-06-22 06:49:26 GMT 55.725124 -3.946152 7,375 331 252 -768
2019-06-22 06:49:23 GMT 55.721771 -3.942804 7,375 331 252 -768
2019-06-22 06:49:20 GMT 55.718262 -3.939181 7,425 331 257 -576
2019-06-22 06:49:16 GMT 55.714928 -3.935766 7,475 331 260 -512
2019-06-22 06:49:13 GMT 55.711391 -3.932161 7,475 331 263 -640
2019-06-22 06:49:10 GMT 55.708923 -3.929672 7,500 331 265 -704
2019-06-22 06:49:06 GMT 55.704712 -3.925365 7,575 331 270 -896
2019-06-22 06:49:03 GMT 55.700317 -3.921037 7,650 331 273 -384
2019-06-22 06:48:56 GMT 55.692169 -3.912881 7,675 331 272 -512
2019-06-22 06:48:53 GMT 55.689789 -3.910467 7,700 331 272 -512
2019-06-22 06:48:50 GMT 55.686401 -3.907055 7,725 331 272 -512
2019-06-22 06:48:46 GMT 55.682434 -3.903065 7,750 331 272 -704
2019-06-22 06:48:42 GMT 55.678482 -3.899148 7,825 331 271 -896
2019-06-22 06:48:39 GMT 55.673996 -3.894570 7,850 331 270 -384
2019-06-22 06:48:35 GMT 55.670288 -3.890908 7,875 331 273 -576
2019-06-22 06:48:32 GMT 55.666885 -3.887444 7,900 331 275 -1152
2019-06-22 06:48:29 GMT 55.663162 -3.883753 8,250 331 278 -1344
2019-06-22 06:48:24 GMT 55.654541 -3.875178 8,125 331 278 -1536
2019-06-22 06:48:21 GMT 55.654541 -3.875178 8,225 332 277 -1088
2019-06-22 06:48:18 GMT 55.651154 -3.871908 8,275 332 276 -1088
2019-06-22 06:48:14 GMT 55.646729 -3.867617 8,350 332 276 -1088
2019-06-22 06:48:11 GMT 55.643051 -3.864012 8,400 332 277 -1024
2019-06-22 06:48:08 GMT 55.638885 -3.859947 8,450 331 278 -896
2019-06-22 06:48:03 GMT 55.634583 -3.855702 8,500 331 279 -1024
2019-06-22 06:48:00 GMT 55.630760 -3.851995 8,575 332 279 -1152
2019-06-22 06:47:56 GMT 55.625107 -3.846463 8,675 332 279 -1152
2019-06-22 06:47:53 GMT 55.622707 -3.844099 8,725 332 280 -1152
2019-06-22 06:47:50 GMT 55.618698 -3.840304 8,775 332 281 -1152
2019-06-22 06:47:45 GMT 55.613846 -3.835560 8,875 332 281 -1280
2019-06-22 06:47:41 GMT 55.609268 -3.831149 8,925 332 281 -1280
2019-06-22 06:47:38 GMT 55.604553 -3.826655 9,025 332 282 -1152
2019-06-22 06:47:34 GMT 55.601761 -3.823991 9,075 332 281 -1024
2019-06-22 06:47:31 GMT 55.598007 -3.820329 9,150 332 281 -1088
2019-06-22 06:47:28 GMT 55.593006 -3.815517 9,225 332 280 -1152
2019-06-22 06:47:24 GMT 55.590168 -3.812857 9,275 332 280 -1088
2019-06-22 06:47:20 GMT 55.584915 -3.807845 9,375 332 279 -832
2019-06-22 06:47:17 GMT 55.580906 -3.804016 9,550 331 287 -576
2019-06-22 06:47:14 GMT 55.577728 -3.801020 9,450 332 279 -512
2019-06-22 06:47:11 GMT 55.575439 -3.798856 9,450 332 280 -512
2019-06-22 06:47:08 GMT 55.571918 -3.795519 9,475 332 280 -448
2019-06-22 06:47:04 GMT 55.566742 -3.790699 9,525 333 281 -512
2019-06-22 06:47:01 GMT 55.563950 -3.788119 9,625 332 283 -512
2019-06-22 06:46:58 GMT 55.560745 -3.785040 9,550 332 283 -576
2019-06-22 06:46:52 GMT 55.552975 -3.777666 9,625 332 284 -64
2019-06-22 06:46:49 GMT 55.548248 -3.773055 9,650 331 285 -256
2019-06-22 06:46:41 GMT 55.540833 -3.765647 9,675 331 287 -640
2019-06-22 06:46:38 GMT 55.536713 -3.761569 9,700 331 287 -576
2019-06-22 06:46:31 GMT 55.525131 -3.750000 9,825 331 288 -448
2019-06-22 06:46:20 GMT 55.516430 -3.741188 9,900 332 291 -576
2019-06-22 06:46:17 GMT 55.512772 -3.737516 9,875 332 291 -576
2019-06-22 06:46:10 GMT 55.503204 -3.728277 9,950 332 292 -704
2019-06-22 06:46:07 GMT 55.500916 -3.726113 10,200 332 291 -1088
2019-06-22 06:46:01 GMT 55.488968 -3.714877 10,075 333 288 -1024
2019-06-22 06:45:58 GMT 55.488968 -3.714877 10,125 332 288 -832
2019-06-22 06:45:50 GMT 55.480362 -3.706721 10,275 332 285 -512
2019-06-22 06:45:47 GMT 55.477295 -3.703807 10,275 332 285 -384
2019-06-22 06:45:39 GMT 55.467407 -3.694486 10,275 333 284 -128
2019-06-22 06:45:36 GMT 55.465118 -3.692322 10,275 333 285 -192
2019-06-22 06:45:30 GMT 55.456890 -3.684797 10,300 332 285 -64
2019-06-22 06:45:26 GMT 55.453262 -3.681502 10,300 333 285 -256
2019-06-22 06:45:18 GMT 55.442184 -3.671049 10,325 332 286 64
2019-06-22 06:45:15 GMT 55.440411 -3.669350 10,350 332 288 -384
2019-06-22 06:45:09 GMT 55.433029 -3.662325 10,325 332 288 -320
2019-06-22 06:45:05 GMT 55.428131 -3.657639 10,350 332 288 -384
2019-06-22 06:44:59 GMT 55.416458 -3.646249 10,425 331 287 -256
2019-06-22 06:44:56 GMT 55.416458 -3.646249 10,425 331 287 -256
2019-06-22 06:44:49 GMT 55.409172 -3.638972 10,450 331 288 -256
2019-06-22 06:44:46 GMT 55.405701 -3.635505 10,450 332 289 -256
2019-06-22 06:44:43 GMT 55.402542 -3.632436 10,475 332 288 -320
2019-06-22 06:44:36 GMT 55.394508 -3.624656 10,525 332 289 -768
2019-06-22 06:44:33 GMT 55.389809 -3.620245 10,550 332 289 -768
2019-06-22 06:44:29 GMT 55.384781 -3.615584 10,600 333 287 -640
2019-06-22 06:44:26 GMT 55.380962 -3.612088 10,625 333 286 -320
2019-06-22 06:44:22 GMT 55.377457 -3.608847 10,650 333 286 -512
2019-06-22 06:44:18 GMT 55.372879 -3.604647 10,700 333 286 64
2019-06-22 06:44:15 GMT 55.368721 -3.600936 10,700 333 286 64
2019-06-22 06:44:12 GMT 55.366066 -3.598439 10,700 333 286 -128
2019-06-22 06:44:07 GMT 55.359222 -3.592113 10,700 333 287 -256
2019-06-22 06:44:01 GMT 55.353287 -3.586713 10,725 333 287 -512
2019-06-22 06:43:57 GMT 55.348297 -3.582028 10,775 332 286 -640
2019-06-22 06:43:53 GMT 55.344223 -3.578069 10,800 331 285 -704
2019-06-22 06:43:50 GMT 55.340103 -3.574030 10,850 331 285 -896
2019-06-22 06:43:47 GMT 55.332458 -3.566194 10,950 330 281 -832
2019-06-22 06:43:43 GMT 55.332458 -3.566194 10,950 330 282 -768
2019-06-22 06:43:40 GMT 55.328064 -3.561671 11,000 330 280 -704
2019-06-22 06:43:37 GMT 55.320694 -3.553673 11,050 329 279 -128
2019-06-22 06:43:32 GMT 55.320694 -3.553673 11,050 329 280 0
2019-06-22 06:43:29 GMT 55.315929 -3.548584 11,050 330 279 0
2019-06-22 06:43:26 GMT 55.312592 -3.545110 11,050 330 280 -64
2019-06-22 06:43:19 GMT 55.305634 -3.538082 11,050 331 281 0
2019-06-22 06:43:16 GMT 55.302841 -3.535417 11,050 332 282 0
2019-06-22 06:43:10 GMT 55.295261 -3.528193 11,050 332 284 64
2019-06-22 06:43:07 GMT 55.291855 -3.524996 11,100 332 284 64
2019-06-22 06:43:04 GMT 55.288368 -3.521784 11,050 332 284 64
2019-06-22 06:43:01 GMT 55.284668 -3.518291 11,050 333 286 -256
2019-06-22 06:42:58 GMT 55.277252 -3.511424 11,050 333 286 -256
2019-06-22 06:42:54 GMT 55.277252 -3.511424 11,050 333 286 -256
2019-06-22 06:42:51 GMT 55.273041 -3.507547 11,075 333 287 -384
2019-06-22 06:42:48 GMT 55.270065 -3.504800 11,100 333 286 -512
2019-06-22 06:42:44 GMT 55.264999 -3.500144 11,125 333 287 -448
2019-06-22 06:42:38 GMT 55.258064 -3.493819 11,175 333 286 -448
2019-06-22 06:42:34 GMT 55.253269 -3.489324 11,175 333 286 -128
2019-06-22 06:42:29 GMT 55.241089 -3.478061 11,375 332 283 -832
2019-06-22 06:42:24 GMT 55.241089 -3.478061 11,275 333 284 -896
2019-06-22 06:42:18 GMT 55.234695 -3.472096 11,375 332 282 -768
2019-06-22 06:42:13 GMT 55.229095 -3.466752 11,425 332 281 -320
2019-06-22 06:42:10 GMT 55.225246 -3.463107 11,450 331 280 -256
2019-06-22 06:42:07 GMT 55.221222 -3.459239 11,475 331 280 -128
2019-06-22 06:42:03 GMT 55.217983 -3.455949 11,475 331 280 -192
2019-06-22 06:42:00 GMT 55.213795 -3.451871 11,475 331 280 -384
2019-06-22 06:41:55 GMT 55.207718 -3.445749 11,525 331 280 -256
2019-06-22 06:41:49 GMT 55.201538 -3.439609 11,525 329 278 -320
2019-06-22 06:41:46 GMT 55.198883 -3.436782 11,550 329 279 -320
2019-06-22 06:41:42 GMT 55.193310 -3.430647 11,575 328 278 0
2019-06-22 06:41:38 GMT 55.189678 -3.426736 11,575 328 278 64
2019-06-22 06:41:35 GMT 55.186886 -3.423656 11,575 328 278 128
2019-06-22 06:41:32 GMT 55.183395 -3.419828 11,550 328 278 256
2019-06-22 06:41:29 GMT 55.179485 -3.415416 11,550 328 279 448
2019-06-22 06:41:26 GMT 55.176178 -3.411820 11,525 329 281 384
2019-06-22 06:41:23 GMT 55.172222 -3.407676 11,500 331 283 256
2019-06-22 06:41:18 GMT 55.167336 -3.402849 11,475 331 285 128
2019-06-22 06:41:15 GMT 55.163006 -3.398687 11,475 332 286 -192
2019-06-22 06:41:12 GMT 55.160110 -3.395906 11,475 332 287 -320
2019-06-22 06:41:08 GMT 55.156021 -3.392029 11,500 332 287 -320
2019-06-22 06:41:04 GMT 55.151089 -3.387368 11,500 332 287 -192
2019-06-22 06:41:01 GMT 55.147842 -3.384193 11,525 331 288 -320
2019-06-22 06:40:58 GMT 55.143768 -3.380235 11,550 331 288 -512
2019-06-22 06:40:55 GMT 55.134796 -3.371388 11,575 332 287 -512
2019-06-22 06:40:50 GMT 55.134796 -3.371388 11,625 331 287 -512
2019-06-22 06:40:47 GMT 55.130978 -3.367642 11,600 331 287 -448
2019-06-22 06:40:43 GMT 55.126785 -3.363594 11,650 332 287 -704
2019-06-22 06:40:40 GMT 55.123249 -3.360235 11,675 332 287 -704
2019-06-22 06:40:37 GMT 55.119415 -3.356566 11,775 328 289 -64
2019-06-22 06:40:32 GMT 55.113659 -3.350997 11,775 331 285 -512
2019-06-22 06:40:29 GMT 55.106644 -3.344125 11,825 326 291 -448
2019-06-22 06:40:19 GMT 55.098206 -3.335682 12,200 326 291 -448
2019-06-22 06:40:11 GMT 55.089890 -3.327080 11,825 328 289 -64
2019-06-22 06:40:08 GMT 55.085770 -3.322799 11,800 329 288 64
2019-06-22 06:40:05 GMT 55.082977 -3.319729 11,800 329 288 64
2019-06-22 06:39:58 GMT 55.075161 -3.311213 11,800 328 289 -64
2019-06-22 06:39:55 GMT 55.072273 -3.308050 11,825 328 290 -192
2019-06-22 06:39:50 GMT 55.065399 -3.300180 11,850 327 291 -320
2019-06-22 06:39:45 GMT 55.060455 -3.294202 11,850 326 291 -448
2019-06-22 06:39:40 GMT 55.054585 -3.286993 11,925 326 292 -448
2019-06-22 06:39:37 GMT 55.051849 -3.283862 11,925 327 292 -448
2019-06-22 06:39:33 GMT 55.047649 -3.279086 11,950 329 293 -512
2019-06-22 06:39:30 GMT 55.043243 -3.274410 12,000 329 293 -512
2019-06-22 06:39:27 GMT 55.039734 -3.270763 12,000 330 293 -704
2019-06-22 06:39:23 GMT 55.034660 -3.265603 12,050 331 294 -832
2019-06-22 06:39:20 GMT 55.031616 -3.262616 12,100 331 294 -832
2019-06-22 06:39:17 GMT 55.026718 -3.257931 12,150 332 293 -832
2019-06-22 06:39:14 GMT 55.025024 -3.256281 12,175 333 293 -832
2019-06-22 06:39:11 GMT 55.010502 -3.243297 12,225 334 291 -768
2019-06-22 06:39:03 GMT 55.010502 -3.243297 12,325 333 290 -768
2019-06-22 06:39:00 GMT 55.008358 -3.241383 12,350 333 290 -832
2019-06-22 06:38:56 GMT 55.002045 -3.235635 12,425 332 289 -832
2019-06-22 06:38:52 GMT 54.998199 -3.232081 12,550 333 287 -640
2019-06-22 06:38:48 GMT 54.993530 -3.227638 12,500 332 287 -704
2019-06-22 06:38:44 GMT 54.988575 -3.223072 12,600 333 286 -512
2019-06-22 06:38:41 GMT 54.984245 -3.219161 12,600 333 286 -512
2019-06-22 06:38:38 GMT 54.976845 -3.212585 12,650 333 285 -384
2019-06-22 06:38:34 GMT 54.973984 -3.210027 12,675 333 285 -384
2019-06-22 06:38:28 GMT 54.970139 -3.206593 12,675 333 285 -384
2019-06-22 06:38:23 GMT 54.964417 -3.201303 12,725 333 284 -320
2019-06-22 06:38:17 GMT 54.957184 -3.194760 12,750 333 284 -128
2019-06-22 06:38:13 GMT 54.952835 -3.190721 12,750 332 285 -256
2019-06-22 06:38:10 GMT 54.948120 -3.186278 12,775 330 285 -256
2019-06-22 06:38:07 GMT 54.945831 -3.183935 12,775 330 285 -256
2019-06-22 06:38:02 GMT 54.940254 -3.178128 12,825 326 283 -384
2019-06-22 06:37:57 GMT 54.934753 -3.171818 12,825 325 283 -384
2019-06-22 06:37:54 GMT 54.930634 -3.166648 12,850 325 282 -320
2019-06-22 06:37:51 GMT 54.926926 -3.162043 12,875 325 283 -256
2019-06-22 06:37:48 GMT 54.920887 -3.154658 12,875 325 283 -320
2019-06-22 06:37:41 GMT 54.918186 -3.151412 12,900 326 284 -512
2019-06-22 06:37:38 GMT 54.914371 -3.146834 12,925 326 284 -256
2019-06-22 06:37:35 GMT 54.911179 -3.142898 13,000 327 282 -832
2019-06-22 06:37:31 GMT 54.906967 -3.137728 12,975 325 284 -448
2019-06-22 06:37:27 GMT 54.902222 -3.131686 13,000 324 284 -512
2019-06-22 06:37:24 GMT 54.898960 -3.127441 13,075 326 284 -768
2019-06-22 06:37:21 GMT 54.896210 -3.123995 13,050 325 284 -640
2019-06-22 06:37:18 GMT 54.892864 -3.119867 13,125 326 284 -768
2019-06-22 06:37:14 GMT 54.887512 -3.113655 13,125 327 284 -768
2019-06-22 06:37:11 GMT 54.884251 -3.109880 13,175 327 282 -896
2019-06-22 06:37:06 GMT 54.879780 -3.104803 13,425 330 277 -256
2019-06-22 06:37:03 GMT 54.877083 -3.101890 13,300 328 281 -640
2019-06-22 06:37:00 GMT 54.873264 -3.097728 13,325 329 279 -384
2019-06-22 06:36:55 GMT 54.867737 -3.091844 13,350 329 279 -448
2019-06-22 06:36:52 GMT 54.864418 -3.088323 13,350 329 279 -320
2019-06-22 06:36:49 GMT 54.860786 -3.084495 13,375 329 278 -320
2019-06-22 06:36:46 GMT 54.857483 -3.080938 13,400 329 278 -384
2019-06-22 06:36:42 GMT 54.853340 -3.076505 13,400 329 278 -320
2019-06-22 06:36:39 GMT 54.850021 -3.073021 13,425 329 278 -384
2019-06-22 06:36:36 GMT 54.847054 -3.069846 13,500 338 292 64
2019-06-22 06:36:32 GMT 54.840214 -3.062772 13,475 330 277 -320
2019-06-22 06:36:29 GMT 54.838989 -3.061550 13,500 331 278 -64
2019-06-22 06:36:24 GMT 54.833416 -3.056114 13,500 332 277 256
2019-06-22 06:36:21 GMT 54.829971 -3.052987 13,500 334 279 128
2019-06-22 06:36:18 GMT 54.826759 -3.050287 13,475 335 280 64
2019-06-22 06:36:13 GMT 54.821312 -3.046043 13,475 339 283 -128
2019-06-22 06:36:10 GMT 54.817566 -3.043374 13,475 339 283 -128
2019-06-22 06:36:07 GMT 54.813812 -3.040709 13,475 338 284 -128
2019-06-22 06:36:04 GMT 54.809280 -3.037558 13,500 338 283 -128
2019-06-22 06:35:59 GMT 54.804180 -3.033974 13,500 338 284 192
2019-06-22 06:35:56 GMT 54.799759 -3.030895 13,500 339 286 64
2019-06-22 06:35:53 GMT 54.790913 -3.024819 13,500 339 286 -64
2019-06-22 06:35:50 GMT 54.790913 -3.024819 13,500 339 287 -256
2019-06-22 06:35:47 GMT 54.789001 -3.023502 13,500 339 287 -256
2019-06-22 06:35:41 GMT 54.780346 -3.017578 13,525 339 287 -64
2019-06-22 06:35:37 GMT 54.776733 -3.015182 13,525 339 289 -64
2019-06-22 06:35:34 GMT 54.771606 -3.011627 13,525 339 289 -128
2019-06-22 06:35:31 GMT 54.769135 -3.009931 13,675 339 289 -320
2019-06-22 06:35:27 GMT 54.763588 -3.006092 13,550 339 289 -384
2019-06-22 06:35:22 GMT 54.758232 -3.002264 13,575 338 290 -256
2019-06-22 06:35:19 GMT 54.754486 -2.999671 13,600 338 291 -64
2019-06-22 06:35:16 GMT 54.749268 -2.995875 13,600 338 290 128
2019-06-22 06:35:13 GMT 54.746567 -2.993936 13,600 338 292 64
2019-06-22 06:35:10 GMT 54.738556 -2.988039 13,625 337 293 -640
2019-06-22 06:35:07 GMT 54.738556 -2.988039 13,600 337 293 -448
2019-06-22 06:35:01 GMT 54.732304 -2.983371 13,675 337 294 -768
2019-06-22 06:34:56 GMT 54.724808 -2.977794 13,700 337 292 -704
2019-06-22 06:34:51 GMT 54.719238 -2.973660 13,925 337 292 -704
2019-06-22 06:34:45 GMT 54.712143 -2.968409 13,850 337 291 -768
2019-06-22 06:34:42 GMT 54.707199 -2.964693 13,875 337 289 -896
2019-06-22 06:34:35 GMT 54.699951 -2.959234 13,975 337 288 -640
2019-06-22 06:34:32 GMT 54.695808 -2.956071 14,025 336 286 -320
2019-06-22 06:34:28 GMT 54.691338 -2.952576 14,200 336 289 -512
2019-06-22 06:34:24 GMT 54.684311 -2.947083 14,075 335 288 -64
2019-06-22 06:34:19 GMT 54.678768 -2.942588 14,225 335 288 -448
2019-06-22 06:34:16 GMT 54.676941 -2.941105 14,075 335 288 -128
2019-06-22 06:34:13 GMT 54.673321 -2.938094 14,075 335 288 -320
2019-06-22 06:34:10 GMT 54.668289 -2.933915 14,100 335 288 -448
2019-06-22 06:34:07 GMT 54.661652 -2.928422 14,300 335 289 -448
2019-06-22 06:34:04 GMT 54.661652 -2.928422 14,125 335 289 -448
2019-06-22 06:34:01 GMT 54.658356 -2.925756 14,200 336 288 -512
2019-06-22 06:33:58 GMT 54.654655 -2.922696 14,200 336 288 -448
2019-06-22 06:33:55 GMT 54.650745 -2.919617 14,250 336 289 -512
2019-06-22 06:33:52 GMT 54.646835 -2.916537 14,250 336 288 -512
2019-06-22 06:33:48 GMT 54.641853 -2.912625 14,300 336 290 -128
2019-06-22 06:33:44 GMT 54.637524 -2.909130 14,300 335 288 0
2019-06-22 06:33:41 GMT 54.633755 -2.906050 14,300 335 288 0
2019-06-22 06:33:37 GMT 54.628399 -2.901806 14,300 336 290 -128
2019-06-22 06:33:33 GMT 54.624161 -2.898452 14,300 336 290 -128
2019-06-22 06:33:30 GMT 54.620579 -2.895647 14,325 335 292 -512
2019-06-22 06:33:27 GMT 54.615551 -2.891652 14,325 336 292 -512
2019-06-22 06:33:23 GMT 54.611732 -2.888572 14,400 335 292 -384
2019-06-22 06:33:19 GMT 54.606846 -2.884494 14,400 334 291 -128
2019-06-22 06:33:16 GMT 54.603958 -2.881997 14,425 334 295 -256
2019-06-22 06:33:12 GMT 54.597610 -2.876318 14,400 332 292 -256
2019-06-22 06:33:08 GMT 54.594418 -2.873258 14,425 338 307 -128
2019-06-22 06:33:05 GMT 54.590561 -2.869694 14,425 334 295 -256
2019-06-22 06:33:02 GMT 54.587265 -2.866785 14,475 336 298 -320
2019-06-22 06:32:59 GMT 54.576912 -2.858193 14,500 337 301 -64
2019-06-22 06:32:56 GMT 54.576912 -2.858193 14,475 336 299 -448
2019-06-22 06:32:53 GMT 54.575191 -2.856778 14,500 336 298 -256
2019-06-22 06:32:49 GMT 54.570164 -2.852866 14,500 336 299 -448
2019-06-22 06:32:46 GMT 54.565979 -2.849660 14,550 336 299 -128
2019-06-22 06:32:43 GMT 54.563324 -2.847559 14,550 336 299 -128
2019-06-22 06:32:40 GMT 54.559361 -2.844543 14,550 337 301 0
2019-06-22 06:32:36 GMT 54.552933 -2.839804 14,550 339 305 -1536
2019-06-22 06:32:33 GMT 54.548794 -2.836803 14,550 338 307 -128
2019-06-22 06:32:30 GMT 54.546188 -2.834972 14,600 338 307 -320
2019-06-22 06:32:27 GMT 54.542358 -2.832130 14,550 338 307 -192
2019-06-22 06:32:23 GMT 54.537231 -2.828333 14,575 337 308 -1088
2019-06-22 06:32:20 GMT 54.533108 -2.825234 14,650 337 308 -1280
2019-06-22 06:32:17 GMT 54.529175 -2.822275 14,700 337 308 -1472
2019-06-22 06:32:13 GMT 54.522354 -2.817185 14,800 338 306 -1728
2019-06-22 06:32:10 GMT 54.518692 -2.814600 14,875 339 306 -1600
2019-06-22 06:32:05 GMT 54.513474 -2.811207 14,975 341 304 -1344
2019-06-22 06:31:59 GMT 54.505829 -2.807007 15,075 345 304 -1216
2019-06-22 06:31:56 GMT 54.500427 -2.804583 15,300 348 302 -512
2019-06-22 06:31:52 GMT 54.494659 -2.802241 15,250 348 302 -704
2019-06-22 06:31:48 GMT 54.488983 -2.800060 15,300 349 303 -576
2019-06-22 06:31:45 GMT 54.485950 -2.799017 15,325 350 303 -576
2019-06-22 06:31:41 GMT 54.480412 -2.797269 15,400 351 303 -640
2019-06-22 06:31:38 GMT 54.472412 -2.794890 15,425 351 303 -704
2019-06-22 06:31:35 GMT 54.472412 -2.794890 15,500 351 302 -896
2019-06-22 06:31:31 GMT 54.466873 -2.793193 15,525 351 302 -896
2019-06-22 06:31:27 GMT 54.462021 -2.791739 15,525 351 302 -896
2019-06-22 06:31:24 GMT 54.457226 -2.790278 15,575 351 302 -960
2019-06-22 06:31:21 GMT 54.451126 -2.788613 15,675 351 301 -640
2019-06-22 06:31:17 GMT 54.447601 -2.787538 15,675 351 300 -512
2019-06-22 06:31:13 GMT 54.442108 -2.785923 15,750 350 299 -448
2019-06-22 06:31:10 GMT 54.437443 -2.784452 15,750 350 300 -512
2019-06-22 06:31:07 GMT 54.433365 -2.783176 15,800 350 300 -512
2019-06-22 06:31:01 GMT 54.425060 -2.780373 15,825 350 300 -576
2019-06-22 06:30:58 GMT 54.422314 -2.779458 15,825 350 300 -640
2019-06-22 06:30:55 GMT 54.416977 -2.777764 15,900 350 300 -512
2019-06-22 06:30:49 GMT 54.409195 -2.775340 15,950 351 300 -448
2019-06-22 06:30:46 GMT 54.404938 -2.774048 15,950 351 301 -448
2019-06-22 06:30:43 GMT 54.400806 -2.772883 15,975 351 301 -448
2019-06-22 06:30:39 GMT 54.394707 -2.771301 16,000 353 302 -448
2019-06-22 06:30:36 GMT 54.387863 -2.769928 16,050 356 304 -640
2019-06-22 06:30:30 GMT 54.377060 -2.769363 16,100 0 306 -320
2019-06-22 06:30:26 GMT 54.377060 -2.769363 16,125 2 307 -256
2019-06-22 06:30:22 GMT 54.372620 -2.769928 16,125 4 307 -256
2019-06-22 06:30:19 GMT 54.367104 -2.771301 16,150 8 310 -384
2019-06-22 06:30:16 GMT 54.361423 -2.772966 16,150 9 311 -384
2019-06-22 06:30:13 GMT 54.358429 -2.773886 16,225 10 312 -768
2019-06-22 06:30:10 GMT 54.353973 -2.775213 16,225 9 312 -640
2019-06-22 06:30:07 GMT 54.349411 -2.776628 16,925 6 312 -1408
2019-06-22 06:30:04 GMT 54.345886 -2.777683 16,250 8 315 -896
2019-06-22 06:30:01 GMT 54.339821 -2.779458 16,275 9 316 -896
2019-06-22 06:29:58 GMT 54.336365 -2.780510 16,300 9 315 -960
2019-06-22 06:29:55 GMT 54.333115 -2.781480 16,325 7 314 -640
2019-06-22 06:29:52 GMT 54.328136 -2.782704 16,375 6 314 -832
2019-06-22 06:29:49 GMT 54.324417 -2.783338 16,400 5 314 -896
2019-06-22 06:29:46 GMT 54.320084 -2.784119 16,450 5 314 -768
2019-06-22 06:29:43 GMT 54.315475 -2.784951 16,550 2 297 -448
2019-06-22 06:29:37 GMT 54.306351 -2.786782 16,925 6 312 -1408
2019-06-22 06:29:34 GMT 54.302032 -2.787619 16,650 6 313 -1344
2019-06-22 06:29:31 GMT 54.295853 -2.788912 16,775 7 311 -1472
2019-06-22 06:29:28 GMT 54.294155 -2.789279 16,825 7 309 -1536
2019-06-22 06:29:25 GMT 54.289307 -2.790366 16,900 7 308 -1472
2019-06-22 06:29:22 GMT 54.285076 -2.791276 17,300 8 303 -1536
2019-06-22 06:29:19 GMT 54.280144 -2.792525 17,125 8 303 -1536
2019-06-22 06:29:15 GMT 54.275940 -2.793666 17,075 7 300 -1152
2019-06-22 06:29:12 GMT 54.272598 -2.794530 17,150 7 300 -1152
2019-06-22 06:29:09 GMT 54.267746 -2.795550 17,275 6 298 -832
2019-06-22 06:29:06 GMT 54.262756 -2.796491 17,325 2 297 -448
2019-06-22 06:29:03 GMT 54.258636 -2.797232 17,325 4 297 -320
2019-06-22 06:29:00 GMT 54.255329 -2.797717 17,350 4 297 -448
2019-06-22 06:28:57 GMT 54.249977 -2.798363 17,350 3 297 -384
2019-06-22 06:28:53 GMT 54.245041 -2.798767 17,375 3 297 -448
2019-06-22 06:28:50 GMT 54.241459 -2.799171 17,400 4 297 -384
2019-06-22 06:28:47 GMT 54.237854 -2.799552 17,425 4 297 -448
2019-06-22 06:28:44 GMT 54.234337 -2.800060 17,450 4 298 -256
2019-06-22 06:28:41 GMT 54.228237 -2.801029 17,475 5 298 -64
2019-06-22 06:28:38 GMT 54.221924 -2.802220 17,450 6 298 -128
2019-06-22 06:28:35 GMT 54.221375 -2.802298 17,500 6 300 -256
2019-06-22 06:28:32 GMT 54.217064 -2.803210 17,475 7 300 -256
2019-06-22 06:28:29 GMT 54.213226 -2.804025 17,475 7 300 -384
2019-06-22 06:28:26 GMT 54.207733 -2.805359 17,525 7 300 -384
2019-06-22 06:28:22 GMT 54.202744 -2.806458 17,550 6 300 -448
2019-06-22 06:28:19 GMT 54.199127 -2.807164 17,600 4 301 -256
2019-06-22 06:28:16 GMT 54.193451 -2.808027 17,600 4 301 -320
2019-06-22 06:28:13 GMT 54.191368 -2.808380 17,600 5 301 -448
2019-06-22 06:28:10 GMT 54.185989 -2.809283 17,675 7 302 -768
2019-06-22 06:28:07 GMT 54.181965 -2.810077 17,650 7 302 -896
2019-06-22 06:28:03 GMT 54.176834 -2.811401 17,675 8 302 -1152
2019-06-22 06:28:00 GMT 54.171387 -2.812892 17,775 9 299 64
2019-06-22 06:27:57 GMT 54.168823 -2.813599 17,825 9 299 -640
2019-06-22 06:27:54 GMT 54.164062 -2.815011 17,850 9 299 64
2019-06-22 06:27:51 GMT 54.159107 -2.816216 17,850 0 298 -448
2019-06-22 06:27:47 GMT 54.154953 -2.816895 17,875 3 298 -192
2019-06-22 06:27:44 GMT 54.149891 -2.817266 17,875 0 298 -384
2019-06-22 06:27:41 GMT 54.146347 -2.817287 17,900 358 298 -960
2019-06-22 06:27:38 GMT 54.141495 -2.816895 17,900 358 298 -960
2019-06-22 06:27:35 GMT 54.138611 -2.816738 18,050 11 300 -832
2019-06-22 06:27:32 GMT 54.132843 -2.817130 18,025 5 299 -832
2019-06-22 06:27:29 GMT 54.129082 -2.817912 18,050 10 300 -832
2019-06-22 06:27:25 GMT 54.124878 -2.819406 18,100 13 301 -768
2019-06-22 06:27:22 GMT 54.120071 -2.821917 18,175 83 304 -704
2019-06-22 06:27:19 GMT 54.116592 -2.824350 18,225 28 303 -1088
2019-06-22 06:27:16 GMT 54.112198 -2.828273 18,225 28 303 -1088
2019-06-22 06:27:13 GMT 54.108925 -2.831968 18,300 37 304 -1024
2019-06-22 06:27:10 GMT 54.105377 -2.836670 18,400 45 304 -960
2019-06-22 06:27:07 GMT 54.101940 -2.842308 18,400 45 304 -960
2019-06-22 06:27:03 GMT 54.098740 -2.848676 18,500 56 303 -1024
2019-06-22 06:27:00 GMT 54.096268 -2.854797 18,600 60 303 -1024
2019-06-22 06:26:56 GMT 54.094345 -2.860840 18,550 62 302 -832
2019-06-22 06:26:53 GMT 54.091652 -2.871794 18,575 86 303 -832
2019-06-22 06:26:50 GMT 54.090767 -2.876398 18,575 86 303 -832
2019-06-22 06:26:47 GMT 54.089951 -2.881949 18,575 78 304 -256
2019-06-22 06:26:44 GMT 54.088943 -2.892779 18,625 87 303 -896
2019-06-22 06:26:41 GMT 54.088718 -2.897806 18,750 97 298 -1664
2019-06-22 06:26:38 GMT 54.088715 -2.905727 18,650 92 301 -1152
2019-06-22 06:26:35 GMT 54.088898 -2.910592 18,675 94 299 -1344
2019-06-22 06:26:32 GMT 54.089676 -2.920088 18,800 100 295 -1856
2019-06-22 06:26:29 GMT 54.090580 -2.926887 18,975 105 290 -1856
2019-06-22 06:26:26 GMT 54.091415 -2.931466 18,950 109 286 -1280
2019-06-22 06:26:23 GMT 54.092743 -2.937587 19,075 113 282 -960
2019-06-22 06:26:20 GMT 54.094444 -2.944336 19,075 116 280 -1152
2019-06-22 06:26:16 GMT 54.097137 -2.952576 19,150 122 275 -960
2019-06-22 06:26:13 GMT 54.098877 -2.956813 19,200 126 272 -960
2019-06-22 06:26:10 GMT 54.104095 -2.966779 19,325 133 267 -1152
2019-06-22 06:26:07 GMT 54.104095 -2.966779 19,325 136 263 -1024
2019-06-22 06:26:04 GMT 54.105927 -2.969526 19,375 142 258 -640
2019-06-22 06:26:01 GMT 54.110550 -2.975255 19,400 149 253 -256
2019-06-22 06:25:58 GMT 54.113068 -2.977766 19,450 159 247 -384
2019-06-22 06:25:54 GMT 54.121078 -2.983180 19,450 165 244 -64
2019-06-22 06:25:50 GMT 54.121078 -2.983180 19,475 166 242 -64
2019-06-22 06:25:47 GMT 54.124332 -2.984404 19,475 169 241 -64
2019-06-22 06:25:44 GMT 54.131641 -2.985454 19,425 172 248 256
2019-06-22 06:25:41 GMT 54.131641 -2.985454 19,450 182 237 192
2019-06-22 06:25:38 GMT 54.134109 -2.985292 19,425 185 236 64
2019-06-22 06:25:33 GMT 54.145340 -2.981219 19,425 195 233 704
2019-06-22 06:25:29 GMT 54.145752 -2.981062 19,375 196 233 768
2019-06-22 06:25:23 GMT 54.150867 -2.978991 19,325 192 237 832
2019-06-22 06:25:20 GMT 54.153286 -2.978426 19,300 186 242 512
2019-06-22 06:25:17 GMT 54.156601 -2.977923 19,225 181 245 256
2019-06-22 06:25:14 GMT 54.160721 -2.978001 19,225 172 248 256
2019-06-22 06:25:11 GMT 54.163330 -2.978551 19,200 169 251 128
2019-06-22 06:25:07 GMT 54.167816 -2.980198 19,200 163 253 -128
2019-06-22 06:25:04 GMT 54.172028 -2.982710 19,200 153 258 -448
2019-06-22 06:25:01 GMT 54.175491 -2.985535 19,250 151 256 -128
2019-06-22 06:24:58 GMT 54.177586 -2.987473 19,225 151 257 -320
2019-06-22 06:24:55 GMT 54.180634 -2.990322 19,250 151 256 -64
2019-06-22 06:24:52 GMT 54.184338 -2.993855 19,275 151 255 128
2019-06-22 06:24:36 GMT 54.200584 -3.008477 19,150 152 259 768
2019-06-22 06:24:33 GMT 54.203331 -3.010900 19,100 152 260 896
2019-06-22 06:24:30 GMT 54.208054 -3.015119 19,050 152 263 704
2019-06-22 06:24:27 GMT 54.210640 -3.017443 19,000 152 265 0
2019-06-22 06:24:24 GMT 54.214130 -3.020513 19,000 152 267 0
2019-06-22 06:24:21 GMT 54.217903 -3.023987 19,000 152 267 0
2019-06-22 06:24:18 GMT 54.221146 -3.026890 19,000 152 267 0
2019-06-22 06:24:15 GMT 54.225071 -3.030449 19,000 152 267 0
2019-06-22 06:24:12 GMT 54.226913 -3.032148 19,000 152 267 0
2019-06-22 06:24:08 GMT 54.231812 -3.036543 19,000 152 267 0
2019-06-22 06:24:05 GMT 54.234566 -3.039012 19,000 152 267 0
2019-06-22 06:24:01 GMT 54.238941 -3.043051 19,000 152 267 0
2019-06-22 06:23:58 GMT 54.242855 -3.046606 19,000 152 267 0
2019-06-22 06:23:55 GMT 54.245132 -3.048628 19,000 152 267 0
2019-06-22 06:23:52 GMT 54.248627 -3.051857 19,000 152 267 0
2019-06-22 06:23:49 GMT 54.251652 -3.054522 19,000 152 267 64
2019-06-22 06:23:45 GMT 54.256256 -3.058751 19,000 152 267 -64
2019-06-22 06:23:42 GMT 54.259102 -3.061308 19,000 152 267 64
2019-06-22 06:23:39 GMT 54.263432 -3.065266 19,000 152 267 0
2019-06-22 06:23:33 GMT 54.268890 -3.070208 19,000 152 267 -64
2019-06-22 06:23:30 GMT 54.273285 -3.074210 19,000 152 267 0
2019-06-22 06:23:27 GMT 54.276138 -3.076737 19,000 152 267 0
2019-06-22 06:23:24 GMT 54.279785 -3.080130 19,000 152 267 0
2019-06-22 06:23:21 GMT 54.282188 -3.082331 19,000 152 267 64
2019-06-22 06:23:18 GMT 54.285637 -3.085410 19,000 152 267 64
2019-06-22 06:23:15 GMT 54.290058 -3.089405 19,000 152 267 64
2019-06-22 06:23:12 GMT 54.292374 -3.091601 19,000 152 267 0
2019-06-22 06:23:09 GMT 54.298809 -3.097395 19,000 151 267 -64
2019-06-22 06:23:06 GMT 54.298809 -3.097395 19,000 151 267 -64
2019-06-22 06:23:02 GMT 54.307049 -3.104969 19,000 151 267 0
2019-06-22 06:22:59 GMT 54.307049 -3.104969 19,000 152 267 0
2019-06-22 06:22:56 GMT 54.309330 -3.106967 19,000 152 267 0
2019-06-22 06:22:53 GMT 54.313797 -3.111070 19,000 152 267 64
2019-06-22 06:22:49 GMT 54.317825 -3.114786 19,000 152 267 64
2019-06-22 06:22:43 GMT 54.323624 -3.120034 19,000 152 267 0
2019-06-22 06:22:40 GMT 54.327999 -3.124029 19,000 152 267 0
2019-06-22 06:22:37 GMT 54.330048 -3.125853 19,000 152 267 0
2019-06-22 06:22:34 GMT 54.333069 -3.128599 19,000 152 267 0
2019-06-22 06:22:31 GMT 54.337463 -3.132638 19,000 152 267 64
2019-06-22 06:22:27 GMT 54.341499 -3.136347 19,000 152 267 0
2019-06-22 06:22:24 GMT 54.344570 -3.139094 19,000 152 267 0
2019-06-22 06:22:21 GMT 54.347351 -3.141686 19,000 151 267 0
2019-06-22 06:22:18 GMT 54.351181 -3.145169 19,000 152 267 0
2019-06-22 06:22:15 GMT 54.355000 -3.148665 19,000 152 267 -64
2019-06-22 06:22:10 GMT 54.359840 -3.153076 19,000 152 267 -64
2019-06-22 06:22:07 GMT 54.362915 -3.155904 19,000 151 266 -64
2019-06-22 06:22:04 GMT 54.366173 -3.158819 19,000 152 267 -64
2019-06-22 06:22:01 GMT 54.369598 -3.161962 19,000 151 266 -64
2019-06-22 06:21:58 GMT 54.373077 -3.165113 19,000 151 266 0
2019-06-22 06:21:55 GMT 54.376320 -3.168141 19,000 151 266 64
2019-06-22 06:21:51 GMT 54.381672 -3.173051 19,000 151 266 0
2019-06-22 06:21:48 GMT 54.384476 -3.175614 19,000 151 267 64
2019-06-22 06:21:45 GMT 54.387352 -3.178212 19,000 151 267 0
2019-06-22 06:21:42 GMT 54.390797 -3.181374 19,000 151 267 64
2019-06-22 06:21:39 GMT 54.393677 -3.184016 19,000 151 267 0
2019-06-22 06:21:36 GMT 54.396755 -3.186784 19,000 151 267 0
2019-06-22 06:21:33 GMT 54.401413 -3.191044 19,000 151 267 0
2019-06-22 06:21:30 GMT 54.403831 -3.193276 19,000 151 267 0
2019-06-22 06:21:27 GMT 54.407593 -3.196698 19,000 151 267 0
2019-06-22 06:21:23 GMT 54.414352 -3.202848 19,000 151 267 0
2019-06-22 06:21:20 GMT 54.414352 -3.202848 19,000 151 267 0
2019-06-22 06:21:17 GMT 54.417709 -3.205988 19,000 151 267 0
2019-06-22 06:21:13 GMT 54.422424 -3.210350 19,000 151 267 0
2019-06-22 06:21:10 GMT 54.425079 -3.212774 19,000 151 267 0
2019-06-22 06:21:07 GMT 54.428604 -3.216005 19,000 151 267 0
2019-06-22 06:21:03 GMT 54.433250 -3.220159 19,000 151 267 0
2019-06-22 06:21:00 GMT 54.436523 -3.223195 19,000 151 267 0
2019-06-22 06:20:56 GMT 54.441330 -3.227638 19,000 151 267 0
2019-06-22 06:20:53 GMT 54.448196 -3.233939 19,000 151 267 0
2019-06-22 06:20:50 GMT 54.448196 -3.233939 19,000 151 267 0
2019-06-22 06:20:47 GMT 54.450943 -3.236443 19,000 151 267 0
2019-06-22 06:20:44 GMT 54.453873 -3.239109 19,000 151 267 0
2019-06-22 06:20:40 GMT 54.458817 -3.243633 19,000 151 267 -64
2019-06-22 06:20:37 GMT 54.464630 -3.248957 19,000 151 267 0
2019-06-22 06:20:34 GMT 54.464630 -3.248957 19,000 151 267 0
2019-06-22 06:20:31 GMT 54.469254 -3.253246 19,000 151 267 0
2019-06-22 06:20:28 GMT 54.472496 -3.256198 19,000 151 267 -64
2019-06-22 06:20:25 GMT 54.474380 -3.257931 19,000 151 267 -64
2019-06-22 06:20:22 GMT 54.478642 -3.261857 19,000 151 267 -64
2019-06-22 06:20:19 GMT 54.481430 -3.264394 19,000 151 267 0
2019-06-22 06:20:16 GMT 54.484367 -3.267101 19,000 151 267 64
2019-06-22 06:20:13 GMT 54.489716 -3.272068 19,000 151 267 64
2019-06-22 06:20:10 GMT 54.491959 -3.274087 19,000 151 267 64
2019-06-22 06:20:07 GMT 54.495026 -3.276922 19,000 152 268 0
2019-06-22 06:20:04 GMT 54.497307 -3.279003 19,000 151 267 64
2019-06-22 06:20:01 GMT 54.500656 -3.282085 19,000 152 268 0
2019-06-22 06:19:58 GMT 54.504181 -3.285397 19,000 152 268 0
2019-06-22 06:19:55 GMT 54.507294 -3.288224 19,000 151 268 0
2019-06-22 06:19:52 GMT 54.511230 -3.291859 19,000 151 268 0
2019-06-22 06:19:49 GMT 54.514069 -3.294484 19,000 151 268 0
2019-06-22 06:19:46 GMT 54.519562 -3.299561 19,000 151 268 0
2019-06-22 06:19:40 GMT 54.523285 -3.302973 19,000 151 268 0
2019-06-22 06:19:37 GMT 54.527241 -3.306552 19,000 151 268 0
2019-06-22 06:19:34 GMT 54.529999 -3.309147 19,000 151 268 0
2019-06-22 06:19:30 GMT 54.534691 -3.313460 19,000 151 268 0
2019-06-22 06:19:26 GMT 54.538971 -3.317372 19,000 151 268 0
2019-06-22 06:19:23 GMT 54.542557 -3.320701 19,000 151 268 -64
2019-06-22 06:19:20 GMT 54.545792 -3.323687 19,000 151 268 -64
2019-06-22 06:19:17 GMT 54.552475 -3.329827 19,000 151 268 -64
2019-06-22 06:19:14 GMT 54.552475 -3.329827 19,000 151 268 -64
2019-06-22 06:19:11 GMT 54.555771 -3.332816 19,000 151 268 0
2019-06-22 06:19:08 GMT 54.559689 -3.336431 19,000 151 268 64
2019-06-22 06:19:02 GMT 54.565273 -3.341592 19,000 151 268 0
2019-06-22 06:18:59 GMT 54.568588 -3.344610 19,000 151 268 64
2019-06-22 06:18:55 GMT 54.574402 -3.350022 19,000 151 269 64
2019-06-22 06:18:52 GMT 54.580730 -3.355741 19,000 151 269 0
2019-06-22 06:18:49 GMT 54.580730 -3.355741 19,000 151 269 -64
2019-06-22 06:18:46 GMT 54.582275 -3.357212 19,000 147 272 0
2019-06-22 06:18:43 GMT 54.586121 -3.361089 19,000 148 271 -64
2019-06-22 06:18:39 GMT 54.591576 -3.366977 19,000 147 272 0
2019-06-22 06:18:36 GMT 54.593250 -3.368808 19,000 147 272 0
2019-06-22 06:18:33 GMT 54.596832 -3.372803 19,000 147 272 0
2019-06-22 06:18:30 GMT 54.600048 -3.376382 19,000 147 272 64
2019-06-22 06:18:27 GMT 54.605961 -3.382874 19,000 147 272 0
2019-06-22 06:18:21 GMT 54.610195 -3.387534 19,000 147 272 0
2019-06-22 06:18:18 GMT 54.612579 -3.390171 19,000 147 272 0
2019-06-22 06:18:15 GMT 54.616112 -3.394110 19,000 147 272 0
2019-06-22 06:18:12 GMT 54.619926 -3.398354 19,000 147 272 0
2019-06-22 06:18:07 GMT 54.624344 -3.403257 19,000 147 272 0
2019-06-22 06:18:04 GMT 54.628647 -3.407943 19,000 147 272 0
2019-06-22 06:18:00 GMT 54.631611 -3.411255 19,000 147 272 0
2019-06-22 06:17:57 GMT 54.635986 -3.416082 19,000 147 271 0
2019-06-22 06:17:54 GMT 54.638081 -3.418413 19,000 147 271 0
2019-06-22 06:17:51 GMT 54.641785 -3.422564 19,000 147 271 0
2019-06-22 06:17:48 GMT 54.644211 -3.425230 19,000 147 271 0
2019-06-22 06:17:45 GMT 54.647488 -3.428816 19,000 147 269 -64
2019-06-22 06:17:42 GMT 54.651031 -3.432824 19,000 147 271 0
2019-06-22 06:17:39 GMT 54.654190 -3.436307 19,000 147 271 0
2019-06-22 06:17:35 GMT 54.658218 -3.440740 19,000 147 269 -64
2019-06-22 06:17:32 GMT 54.661835 -3.444779 19,000 147 270 64
2019-06-22 06:17:29 GMT 54.664490 -3.447768 19,000 147 270 64
2019-06-22 06:17:26 GMT 54.668793 -3.452534 19,000 147 270 64
2019-06-22 06:17:23 GMT 54.671925 -3.456032 19,000 147 270 64
2019-06-22 06:17:19 GMT 54.679932 -3.464938 19,000 147 269 -64
2019-06-22 06:17:15 GMT 54.679932 -3.464938 19,000 147 269 -64
2019-06-22 06:17:12 GMT 54.682259 -3.467518 19,000 147 269 -64
2019-06-22 06:17:09 GMT 54.685638 -3.471195 19,000 147 269 0
2019-06-22 06:17:06 GMT 54.688385 -3.474265 19,000 147 269 0
2019-06-22 06:17:03 GMT 54.691406 -3.477658 19,000 147 269 64
2019-06-22 06:17:00 GMT 54.694641 -3.481251 19,000 147 269 0
2019-06-22 06:16:57 GMT 54.697948 -3.484913 19,000 147 269 0
2019-06-22 06:16:54 GMT 54.700974 -3.488242 19,000 147 269 64
2019-06-22 06:16:51 GMT 54.704281 -3.491988 19,000 147 269 64
2019-06-22 06:16:48 GMT 54.707382 -3.495430 19,000 147 269 64
2019-06-22 06:16:44 GMT 54.711823 -3.500311 19,000 147 268 -64
2019-06-22 06:16:41 GMT 54.714981 -3.503912 19,000 147 269 -64
2019-06-22 06:16:38 GMT 54.718231 -3.507547 19,000 147 268 0
2019-06-22 06:16:35 GMT 54.721458 -3.511131 19,000 147 268 0
2019-06-22 06:16:32 GMT 54.724548 -3.514575 19,000 147 268 -64
2019-06-22 06:16:29 GMT 54.727112 -3.517321 19,000 147 268 -64
2019-06-22 06:16:26 GMT 54.731140 -3.521926 19,000 147 267 0
2019-06-22 06:16:23 GMT 54.733749 -3.524753 19,000 147 267 0
2019-06-22 06:16:20 GMT 54.737503 -3.528873 19,000 147 267 0
2019-06-22 06:16:14 GMT 54.742546 -3.534518 19,000 147 267 0
2019-06-22 06:16:11 GMT 54.745834 -3.538163 19,000 147 266 -64
2019-06-22 06:16:08 GMT 54.748970 -3.541593 19,000 147 266 -64
2019-06-22 06:16:05 GMT 54.753113 -3.546170 19,000 147 266 0
2019-06-22 06:16:02 GMT 54.755722 -3.549069 19,000 147 264 0
2019-06-22 06:15:59 GMT 54.758514 -3.552080 19,000 147 265 0
2019-06-22 06:15:56 GMT 54.761677 -3.555492 19,000 147 264 0
2019-06-22 06:15:51 GMT 54.768082 -3.562478 19,000 148 263 64
2019-06-22 06:15:48 GMT 54.769867 -3.564417 19,000 148 263 0
2019-06-22 06:15:45 GMT 54.772617 -3.567394 19,000 148 263 64
2019-06-22 06:15:41 GMT 54.780392 -3.575717 19,000 148 263 64
2019-06-22 06:15:38 GMT 54.780392 -3.575717 19,000 169 243 0
2019-06-22 06:15:34 GMT 54.784241 -3.579847 19,000 148 262 64
2019-06-22 06:15:31 GMT 54.788307 -3.584206 19,000 147 261 -64
2019-06-22 06:15:27 GMT 54.791840 -3.588086 19,000 147 261 -192
2019-06-22 06:15:24 GMT 54.794678 -3.591237 19,000 144 261 -128
2019-06-22 06:15:21 GMT 54.797245 -3.594277 19,000 145 262 -128
2019-06-22 06:15:18 GMT 54.801041 -3.598992 19,025 143 261 192
2019-06-22 06:15:12 GMT 54.807438 -3.606928 19,000 150 258 64
2019-06-22 06:15:09 GMT 54.810604 -3.610091 19,000 170 246 -64
2019-06-22 06:15:06 GMT 54.812931 -3.612005 19,000 170 246 -64
2019-06-22 06:15:03 GMT 54.816471 -3.614169 19,000 163 251 -192
2019-06-22 06:15:00 GMT 54.819450 -3.615417 19,000 167 248 -64
2019-06-22 06:14:57 GMT 54.823288 -3.616683 19,000 170 246 -64
2019-06-22 06:14:53 GMT 54.827690 -3.618081 19,000 170 246 -64
2019-06-22 06:14:50 GMT 54.831116 -3.619107 19,000 169 245 -64
2019-06-22 06:14:47 GMT 54.835144 -3.620318 19,000 169 244 0
2019-06-22 06:14:42 GMT 54.840088 -3.621853 19,000 169 243 64
2019-06-22 06:14:38 GMT 54.848686 -3.624573 19,000 169 243 0
2019-06-22 06:14:34 GMT 54.848686 -3.624573 19,000 169 242 0
2019-06-22 06:14:31 GMT 54.852177 -3.625655 19,000 169 228 384
2019-06-22 06:14:28 GMT 54.855560 -3.626781 19,000 169 240 64
2019-06-22 06:14:25 GMT 54.858833 -3.627819 19,000 169 240 64
2019-06-22 06:14:22 GMT 54.863209 -3.629150 19,000 169 240 0
2019-06-22 06:14:18 GMT 54.865997 -3.630093 19,000 169 239 0
2019-06-22 06:14:15 GMT 54.869476 -3.631143 19,000 169 236 -64
2019-06-22 06:14:11 GMT 54.873505 -3.632436 19,000 169 238 0
2019-06-22 06:14:08 GMT 54.877174 -3.633645 19,000 169 237 -64
2019-06-22 06:14:05 GMT 54.881317 -3.634893 19,000 169 235 0
2019-06-22 06:14:00 GMT 54.886951 -3.636724 19,000 169 234 64
2019-06-22 06:13:54 GMT 54.891907 -3.638333 19,000 169 232 64
2019-06-22 06:13:51 GMT 54.895515 -3.639471 19,000 169 232 64
2019-06-22 06:13:48 GMT 54.898315 -3.640352 19,000 169 231 64
2019-06-22 06:13:45 GMT 54.902779 -3.641718 18,775 169 226 448
2019-06-22 06:13:41 GMT 54.905991 -3.642717 19,000 169 229 192
2019-06-22 06:13:37 GMT 54.910446 -3.644149 18,975 169 228 448
2019-06-22 06:13:34 GMT 54.913284 -3.645037 18,975 169 228 512
2019-06-22 06:13:29 GMT 54.918320 -3.646653 18,900 169 228 448
2019-06-22 06:13:26 GMT 54.921028 -3.647461 18,900 169 228 448
2019-06-22 06:13:23 GMT 54.923912 -3.648376 18,875 169 226 448
2019-06-22 06:13:20 GMT 54.927521 -3.649480 18,850 169 228 384
2019-06-22 06:13:17 GMT 54.932053 -3.650935 18,825 169 228 384
2019-06-22 06:13:14 GMT 54.934433 -3.651706 18,800 169 228 320
2019-06-22 06:13:09 GMT 54.939148 -3.653196 18,775 169 227 320
2019-06-22 06:13:06 GMT 54.942490 -3.654247 18,750 169 227 384
2019-06-22 06:13:03 GMT 54.945190 -3.655135 18,700 169 226 448
2019-06-22 06:12:59 GMT 54.948914 -3.656283 18,700 169 226 512
2019-06-22 06:12:56 GMT 54.953381 -3.657698 18,700 169 226 448
2019-06-22 06:12:53 GMT 54.955894 -3.658447 18,675 169 226 512
2019-06-22 06:12:47 GMT 54.965561 -3.661517 18,625 169 226 512
2019-06-22 06:12:44 GMT 54.965561 -3.661517 18,600 169 226 448
2019-06-22 06:12:40 GMT 54.969589 -3.662729 18,575 169 226 384
2019-06-22 06:12:36 GMT 54.977356 -3.665189 18,525 169 226 448
2019-06-22 06:12:33 GMT 54.977356 -3.665189 18,525 169 226 448
2019-06-22 06:12:29 GMT 54.981262 -3.666364 18,475 169 226 448
2019-06-22 06:12:25 GMT 54.984970 -3.667576 18,475 169 226 448
2019-06-22 06:12:22 GMT 54.987549 -3.668352 18,450 169 226 448
2019-06-22 06:12:19 GMT 54.994904 -3.670645 18,400 169 226 448
2019-06-22 06:12:15 GMT 54.994904 -3.670645 18,400 169 225 448
2019-06-22 06:12:12 GMT 54.998108 -3.671695 18,375 169 225 384
2019-06-22 06:12:08 GMT 55.002136 -3.672907 18,350 169 225 384
2019-06-22 06:12:05 GMT 55.005203 -3.673877 18,325 169 225 384
2019-06-22 06:12:02 GMT 55.009476 -3.675260 18,300 170 225 320
2019-06-22 06:11:58 GMT 55.011848 -3.676009 18,300 169 224 320
2019-06-22 06:11:55 GMT 55.015411 -3.677108 18,275 169 223 384
2019-06-22 06:11:52 GMT 55.019028 -3.678239 18,250 169 223 448
2019-06-22 06:11:49 GMT 55.022137 -3.679171 18,225 169 223 384
2019-06-22 06:11:46 GMT 55.024338 -3.679854 18,225 169 223 384
2019-06-22 06:11:43 GMT 55.027027 -3.680753 18,200 169 222 384
2019-06-22 06:11:40 GMT 55.030983 -3.681918 18,175 169 222 320
2019-06-22 06:11:37 GMT 55.032936 -3.682584 18,150 170 221 384
2019-06-22 06:11:34 GMT 55.037292 -3.683894 18,125 170 221 384
2019-06-22 06:11:31 GMT 55.040955 -3.685024 18,125 170 221 448
2019-06-22 06:11:26 GMT 55.044716 -3.686163 18,075 170 221 448
2019-06-22 06:11:23 GMT 55.047867 -3.687125 18,025 170 221 384
2019-06-22 06:11:20 GMT 55.051327 -3.688160 18,050 170 221 384
2019-06-22 06:11:17 GMT 55.054398 -3.689159 18,025 170 221 448
2019-06-22 06:11:13 GMT 55.057705 -3.690158 18,000 170 220 576
2019-06-22 06:11:10 GMT 55.060730 -3.691073 17,975 170 220 576
2019-06-22 06:11:07 GMT 55.064129 -3.692072 17,925 170 221 512
2019-06-22 06:11:03 GMT 55.068176 -3.693321 17,900 170 221 512
2019-06-22 06:11:00 GMT 55.070877 -3.694153 17,875 170 221 448
2019-06-22 06:10:57 GMT 55.073868 -3.695041 17,850 170 221 448
2019-06-22 06:10:53 GMT 55.078186 -3.696317 17,825 170 221 384
2019-06-22 06:10:50 GMT 55.081398 -3.697316 17,800 170 220 448
2019-06-22 06:10:47 GMT 55.083893 -3.698111 17,775 170 220 448
2019-06-22 06:10:43 GMT 55.088242 -3.699396 17,750 170 220 256
2019-06-22 06:10:40 GMT 55.091499 -3.700395 17,725 169 220 192
2019-06-22 06:10:37 GMT 55.093735 -3.701100 17,725 169 219 192
2019-06-22 06:10:34 GMT 55.097134 -3.702226 17,700 168 218 576
2019-06-22 06:10:31 GMT 55.099415 -3.702975 17,675 166 219 704
2019-06-22 06:10:28 GMT 55.103668 -3.704735 17,675 166 219 704
2019-06-22 06:10:24 GMT 55.107002 -3.706554 17,600 158 224 512
2019-06-22 06:10:21 GMT 55.109482 -3.708451 17,600 153 226 512
2019-06-22 06:10:17 GMT 55.113705 -3.712713 17,525 146 229 512
2019-06-22 06:10:14 GMT 55.115936 -3.715318 17,425 145 230 576
2019-06-22 06:10:11 GMT 55.118595 -3.718539 17,525 145 230 640
2019-06-22 06:10:07 GMT 55.122738 -3.723533 17,450 145 230 576
2019-06-22 06:10:02 GMT 55.126694 -3.728277 17,325 145 229 384
2019-06-22 06:09:59 GMT 55.130184 -3.732439 17,375 145 231 384
2019-06-22 06:09:54 GMT 55.133770 -3.736683 17,350 145 229 384
2019-06-22 06:09:51 GMT 55.137077 -3.740595 17,325 145 229 384
2019-06-22 06:09:48 GMT 55.138939 -3.742842 17,300 145 229 384
2019-06-22 06:09:44 GMT 55.142521 -3.747087 17,275 145 228 448
2019-06-22 06:09:41 GMT 55.145142 -3.750215 17,250 145 228 448
2019-06-22 06:09:38 GMT 55.147888 -3.753527 17,250 145 228 448
2019-06-22 06:09:35 GMT 55.154022 -3.760820 17,175 145 228 512
2019-06-22 06:09:31 GMT 55.154022 -3.760820 17,200 145 228 512
2019-06-22 06:09:28 GMT 55.156631 -3.763868 17,025 145 227 576
2019-06-22 06:09:23 GMT 55.160751 -3.768876 17,100 145 227 640
2019-06-22 06:09:20 GMT 55.163956 -3.772754 17,075 145 227 640
2019-06-22 06:09:17 GMT 55.165649 -3.774773 17,050 145 227 576
2019-06-22 06:09:13 GMT 55.169334 -3.779214 17,000 145 226 576
2019-06-22 06:09:10 GMT 55.171875 -3.782286 17,000 145 227 512
2019-06-22 06:09:07 GMT 55.174503 -3.785456 16,975 145 227 448
2019-06-22 06:09:04 GMT 55.177624 -3.789201 16,925 145 227 448
2019-06-22 06:09:01 GMT 55.180740 -3.793030 16,900 145 226 576
2019-06-22 06:08:58 GMT 55.182419 -3.795027 16,900 145 226 576
2019-06-22 06:08:55 GMT 55.187164 -3.800770 16,825 145 226 640
2019-06-22 06:08:49 GMT 55.190331 -3.804682 16,800 145 226 576
2019-06-22 06:08:46 GMT 55.192425 -3.807179 16,750 145 226 576
2019-06-22 06:08:43 GMT 55.195824 -3.811340 16,725 145 226 640
2019-06-22 06:08:40 GMT 55.198105 -3.814114 16,650 145 226 640
2019-06-22 06:08:37 GMT 55.200665 -3.817166 16,675 145 226 640
2019-06-22 06:08:34 GMT 55.203041 -3.820079 16,650 145 226 640
2019-06-22 06:08:30 GMT 55.207123 -3.825019 16,575 145 226 704
2019-06-22 06:08:24 GMT 55.211243 -3.830109 16,550 144 226 704
2019-06-22 06:08:21 GMT 55.214397 -3.834062 16,500 144 227 704
2019-06-22 06:08:18 GMT 55.216728 -3.837058 16,475 143 227 640
2019-06-22 06:08:15 GMT 55.219711 -3.841014 16,425 141 228 640
2019-06-22 06:08:10 GMT 55.223007 -3.845700 16,400 140 229 640
2019-06-22 06:08:07 GMT 55.225616 -3.849496 16,350 140 229 576
2019-06-22 06:08:03 GMT 55.228821 -3.854262 16,325 140 229 576
2019-06-22 06:08:00 GMT 55.231342 -3.857866 16,275 139 228 448
2019-06-22 06:07:57 GMT 55.233906 -3.861611 16,275 139 228 448
2019-06-22 06:07:54 GMT 55.236328 -3.865168 16,250 140 227 448
2019-06-22 06:07:51 GMT 55.239632 -3.870017 16,200 140 227 448
2019-06-22 06:07:47 GMT 55.242004 -3.873488 16,200 140 227 448
2019-06-22 06:07:44 GMT 55.244385 -3.877043 16,150 139 226 640
2019-06-22 06:07:41 GMT 55.247776 -3.881919 16,125 139 226 704
2019-06-22 06:07:38 GMT 55.249512 -3.884556 16,075 139 226 704
2019-06-22 06:07:34 GMT 55.252899 -3.889576 16,050 139 226 640
2019-06-22 06:07:29 GMT 55.256744 -3.895219 16,000 139 226 640
2019-06-22 06:07:26 GMT 55.261368 -3.902004 15,950 139 226 576
2019-06-22 06:07:23 GMT 55.261368 -3.902004 15,925 139 226 576
2019-06-22 06:07:18 GMT 55.265327 -3.907887 15,875 140 225 640
2019-06-22 06:07:15 GMT 55.267822 -3.911537 15,875 140 225 640
2019-06-22 06:07:12 GMT 55.269936 -3.914628 15,825 140 225 704
2019-06-22 06:07:08 GMT 55.273590 -3.920019 15,775 140 225 640
2019-06-22 06:07:03 GMT 55.277851 -3.926197 15,725 140 225 576
2019-06-22 06:07:00 GMT 55.279480 -3.928611 15,675 140 224 704
2019-06-22 06:06:57 GMT 55.281830 -3.932055 15,675 140 224 640
2019-06-22 06:06:54 GMT 55.284599 -3.936019 15,650 140 224 640
2019-06-22 06:06:51 GMT 55.287209 -3.939764 15,600 140 223 704
2019-06-22 06:06:48 GMT 55.290279 -3.944258 15,550 140 223 704
2019-06-22 06:06:43 GMT 55.293411 -3.948858 15,475 140 223 704
2019-06-22 06:06:40 GMT 55.295197 -3.951443 15,475 140 223 704
2019-06-22 06:06:37 GMT 55.298080 -3.955563 15,425 140 223 704
2019-06-22 06:06:33 GMT 55.301823 -3.961071 15,375 140 223 640
2019-06-22 06:06:28 GMT 55.305496 -3.966388 15,325 140 223 640
2019-06-22 06:06:25 GMT 55.307922 -3.969810 15,250 140 222 704
2019-06-22 06:06:22 GMT 55.310017 -3.972889 15,275 140 222 704
2019-06-22 06:06:18 GMT 55.313370 -3.977697 15,200 140 222 704
2019-06-22 06:06:15 GMT 55.316349 -3.981961 15,175 140 222 768
2019-06-22 06:06:12 GMT 55.317902 -3.984240 15,150 140 222 768
2019-06-22 06:06:09 GMT 55.320026 -3.987288 15,075 140 221 640
2019-06-22 06:06:05 GMT 55.323471 -3.992365 15,050 140 221 640
2019-06-22 06:06:02 GMT 55.326508 -3.996681 14,875 140 221 640
2019-06-22 06:05:59 GMT 55.328873 -4.000189 14,950 140 221 576
2019-06-22 06:05:56 GMT 55.330902 -4.003143 14,950 140 221 576
2019-06-22 06:05:52 GMT 55.334061 -4.007667 14,925 140 220 640
2019-06-22 06:05:48 GMT 55.336899 -4.011787 14,875 140 220 704
2019-06-22 06:05:45 GMT 55.339325 -4.015341 14,850 140 220 704
2019-06-22 06:05:42 GMT 55.342136 -4.019415 14,800 140 219 640
2019-06-22 06:05:38 GMT 55.345596 -4.024470 14,750 140 219 704
2019-06-22 06:05:35 GMT 55.347153 -4.026651 14,675 140 218 704
2019-06-22 06:05:31 GMT 55.349960 -4.030734 14,700 140 218 704
2019-06-22 06:05:27 GMT 55.353790 -4.036345 14,625 140 218 768
2019-06-22 06:05:24 GMT 55.355869 -4.039307 14,450 140 219 832
2019-06-22 06:05:21 GMT 55.357910 -4.042242 14,575 140 218 832
2019-06-22 06:05:17 GMT 55.361710 -4.047654 14,500 140 218 768
2019-06-22 06:05:14 GMT 55.363693 -4.050543 14,450 140 219 832
2019-06-22 06:05:11 GMT 55.366058 -4.054036 14,425 140 219 832
2019-06-22 06:05:07 GMT 55.369080 -4.058398 14,375 140 219 832
2019-06-22 06:05:04 GMT 55.372444 -4.063194 14,300 140 220 768
2019-06-22 06:05:01 GMT 55.374397 -4.066023 14,275 140 220 704
2019-06-22 06:04:56 GMT 55.378510 -4.071969 14,200 140 220 704
2019-06-22 06:04:53 GMT 55.380203 -4.074393 14,200 140 220 704
2019-06-22 06:04:50 GMT 55.382221 -4.077343 14,175 140 220 640
2019-06-22 06:04:47 GMT 55.384964 -4.081259 14,125 140 219 704
2019-06-22 06:04:43 GMT 55.388580 -4.086510 14,050 140 218 704
2019-06-22 06:04:40 GMT 55.390594 -4.089418 14,050 140 218 704
2019-06-22 06:04:37 GMT 55.392792 -4.092569 14,000 140 218 704
2019-06-22 06:04:34 GMT 55.395630 -4.096689 13,975 140 218 768
2019-06-22 06:04:31 GMT 55.398140 -4.100314 13,925 140 218 832
2019-06-22 06:04:27 GMT 55.400421 -4.103643 13,875 140 218 832
2019-06-22 06:04:24 GMT 55.402611 -4.106889 13,825 144 216 768
2019-06-22 06:04:21 GMT 55.405727 -4.111384 13,775 140 218 832
2019-06-22 06:04:17 GMT 55.408524 -4.115379 13,725 141 217 768
2019-06-22 06:04:14 GMT 55.411377 -4.119388 13,700 142 217 768
2019-06-22 06:04:08 GMT 55.416641 -4.126174 13,600 145 215 640
2019-06-22 06:04:05 GMT 55.418392 -4.128279 13,575 146 214 640
2019-06-22 06:04:02 GMT 55.420532 -4.130693 13,550 148 213 640
2019-06-22 06:03:59 GMT 55.422913 -4.133121 13,525 150 212 640
2019-06-22 06:03:55 GMT 55.427002 -4.137268 13,475 150 210 640
2019-06-22 06:03:52 GMT 55.429562 -4.139848 13,450 150 210 640
2019-06-22 06:03:49 GMT 55.431244 -4.141523 13,450 150 210 640
2019-06-22 06:03:45 GMT 55.434814 -4.145077 13,375 150 209 640
2019-06-22 06:03:42 GMT 55.437386 -4.147672 13,350 150 205 768
2019-06-22 06:03:39 GMT 55.439987 -4.150328 13,325 150 207 704
2019-06-22 06:03:36 GMT 55.442642 -4.152994 13,250 150 207 768
2019-06-22 06:03:33 GMT 55.444656 -4.154996 13,125 150 205 768
2019-06-22 06:03:30 GMT 55.447632 -4.157992 13,200 150 206 768
2019-06-22 06:03:27 GMT 55.450138 -4.160557 13,175 150 206 704
2019-06-22 06:03:24 GMT 55.452942 -4.163319 13,125 150 206 704
2019-06-22 06:03:19 GMT 55.456749 -4.167166 13,050 150 205 704
2019-06-22 06:03:16 GMT 55.459030 -4.169483 13,025 150 204 832
2019-06-22 06:03:13 GMT 55.461311 -4.171715 12,950 150 204 896
2019-06-22 06:03:09 GMT 55.465130 -4.175663 12,925 150 203 960
2019-06-22 06:03:06 GMT 55.466946 -4.177465 12,875 150 203 1024
2019-06-22 06:03:03 GMT 55.469830 -4.180384 12,825 150 204 1024
2019-06-22 06:03:00 GMT 55.472305 -4.182878 12,800 150 204 960
2019-06-22 06:02:57 GMT 55.475418 -4.186049 12,725 150 205 960
2019-06-22 06:02:53 GMT 55.478119 -4.188787 12,700 150 205 960
2019-06-22 06:02:49 GMT 55.481094 -4.191784 12,600 150 205 960
2019-06-22 06:02:46 GMT 55.484116 -4.194863 12,575 150 205 1024
2019-06-22 06:02:43 GMT 55.486359 -4.197110 12,500 150 205 1024
2019-06-22 06:02:39 GMT 55.490021 -4.200772 12,425 150 205 1088
2019-06-22 06:02:36 GMT 55.492081 -4.202853 12,375 150 205 1088
2019-06-22 06:02:33 GMT 55.495155 -4.205961 12,325 150 206 1088
2019-06-22 06:02:30 GMT 55.496384 -4.207264 12,300 150 206 1024
2019-06-22 06:02:27 GMT 55.499359 -4.210177 12,225 150 206 960
2019-06-22 06:02:24 GMT 55.501812 -4.212656 12,150 150 206 896
2019-06-22 06:02:21 GMT 55.505264 -4.216170 12,125 150 206 832
2019-06-22 06:02:17 GMT 55.507816 -4.218750 12,050 150 206 768
2019-06-22 06:02:14 GMT 55.510143 -4.221153 12,025 150 205 768
2019-06-22 06:02:11 GMT 55.512909 -4.223910 12,000 150 204 768
2019-06-22 06:02:08 GMT 55.515079 -4.226131 11,975 150 204 768
2019-06-22 06:02:05 GMT 55.517532 -4.228571 11,900 150 203 832
2019-06-22 06:02:02 GMT 55.520187 -4.231234 11,825 150 202 896
2019-06-22 06:01:57 GMT 55.524673 -4.235812 11,800 150 202 1024
2019-06-22 06:01:54 GMT 55.526688 -4.237893 11,775 150 202 1024
2019-06-22 06:01:51 GMT 55.528812 -4.240036 11,725 150 202 1152
2019-06-22 06:01:47 GMT 55.531860 -4.243136 11,650 150 202 1280
2019-06-22 06:01:44 GMT 55.534584 -4.245872 11,575 150 203 1216
2019-06-22 06:01:41 GMT 55.536987 -4.248297 11,500 150 203 1152
2019-06-22 06:01:38 GMT 55.539845 -4.251194 11,425 150 204 960
2019-06-22 06:01:34 GMT 55.542778 -4.254198 11,400 150 204 960
2019-06-22 06:01:31 GMT 55.545181 -4.256620 11,375 150 204 896
2019-06-22 06:01:27 GMT 55.548615 -4.260115 11,275 150 204 832
2019-06-22 06:01:24 GMT 55.551178 -4.262695 11,200 150 202 832
2019-06-22 06:01:21 GMT 55.553623 -4.265270 11,200 150 202 832
2019-06-22 06:01:17 GMT 55.556763 -4.268355 11,125 150 202 768
2019-06-22 06:01:13 GMT 55.560013 -4.271684 11,075 150 202 768
2019-06-22 06:01:10 GMT 55.562256 -4.273931 11,050 150 200 640
2019-06-22 06:01:06 GMT 55.565186 -4.276928 11,000 150 200 640
2019-06-22 06:01:03 GMT 55.571362 -4.283209 10,925 150 198 704
2019-06-22 06:01:00 GMT 55.571362 -4.283209 10,875 150 196 896
2019-06-22 06:00:56 GMT 55.573318 -4.285183 10,900 150 197 832
2019-06-22 06:00:53 GMT 55.575829 -4.287758 10,850 150 196 896
2019-06-22 06:00:50 GMT 55.582394 -4.294453 10,725 149 193 960
2019-06-22 06:00:45 GMT 55.582394 -4.294453 10,700 150 194 896
2019-06-22 06:00:42 GMT 55.584457 -4.296487 10,675 150 194 896
2019-06-22 06:00:39 GMT 55.586491 -4.298573 10,625 149 193 896
2019-06-22 06:00:36 GMT 55.589146 -4.301233 10,575 150 192 960
2019-06-22 06:00:33 GMT 55.591751 -4.303894 10,525 150 192 1024
2019-06-22 06:00:30 GMT 55.594070 -4.306308 10,475 150 192 1088
2019-06-22 06:00:26 GMT 55.597458 -4.309720 10,400 150 192 1152
2019-06-22 06:00:23 GMT 55.599384 -4.311705 10,325 150 192 1088
2019-06-22 06:00:20 GMT 55.601807 -4.314131 10,300 150 192 1088
2019-06-22 06:00:16 GMT 55.604828 -4.317211 10,225 150 192 1088
2019-06-22 06:00:13 GMT 55.606750 -4.319208 10,175 150 192 1088
2019-06-22 06:00:10 GMT 55.610046 -4.322538 10,100 149 191 1088
2019-06-22 06:00:06 GMT 55.612701 -4.325266 10,050 149 191 1024
2019-06-22 06:00:03 GMT 55.617821 -4.330502 9,950 150 191 1024
2019-06-22 05:59:59 GMT 55.617821 -4.330502 9,925 150 190 1024
2019-06-22 05:59:55 GMT 55.620575 -4.333274 9,850 150 190 1024
2019-06-22 05:59:52 GMT 55.623451 -4.336252 9,775 150 190 1024
2019-06-22 05:59:49 GMT 55.625381 -4.338185 9,750 149 189 1024
2019-06-22 05:59:43 GMT 55.631836 -4.344843 9,600 150 188 1088
2019-06-22 05:59:37 GMT 55.636395 -4.349470 9,500 149 187 1280
2019-06-22 05:59:34 GMT 55.636395 -4.349470 9,500 149 187 1280
2019-06-22 05:59:31 GMT 55.638630 -4.351702 9,450 149 187 1344
2019-06-22 05:59:28 GMT 55.641190 -4.354362 9,375 150 188 1536
2019-06-22 05:59:24 GMT 55.643982 -4.357195 9,225 150 188 1600
2019-06-22 05:59:21 GMT 55.646301 -4.359575 9,200 149 189 1664
2019-06-22 05:59:18 GMT 55.649002 -4.362321 9,150 150 190 1664
2019-06-22 05:59:15 GMT 55.651337 -4.364748 8,925 149 194 1664
2019-06-22 05:59:11 GMT 55.654133 -4.367666 8,800 149 194 1600
2019-06-22 05:59:08 GMT 55.657288 -4.370894 8,775 149 195 1472
2019-06-22 05:59:05 GMT 55.659210 -4.372892 8,700 150 197 1408
2019-06-22 05:59:02 GMT 55.662003 -4.375721 8,625 150 197 1344
2019-06-22 05:58:58 GMT 55.664513 -4.378223 8,425 150 189 1280
2019-06-22 05:58:55 GMT 55.667725 -4.381485 8,475 150 197 1024
2019-06-22 05:58:52 GMT 55.671448 -4.385347 8,425 150 196 1088
2019-06-22 05:58:46 GMT 55.673405 -4.387321 8,350 150 196 1152
2019-06-22 05:58:42 GMT 55.679489 -4.393532 8,200 150 194 1280
2019-06-22 05:58:36 GMT 55.681736 -4.395819 8,175 150 194 1216
2019-06-22 05:58:32 GMT 55.687271 -4.401439 8,000 150 193 1152
2019-06-22 05:58:29 GMT 55.689697 -4.403936 7,950 150 192 1152
2019-06-22 05:58:26 GMT 55.689697 -4.403936 7,925 150 192 1152
2019-06-22 05:58:23 GMT 55.692677 -4.406977 7,850 150 190 1152
2019-06-22 05:58:19 GMT 55.694962 -4.409263 7,775 149 189 1280
2019-06-22 05:58:15 GMT 55.697563 -4.411955 7,725 150 189 1280
2019-06-22 05:58:11 GMT 55.701599 -4.416088 7,600 150 188 1280
2019-06-22 05:58:06 GMT 55.704666 -4.419167 7,525 150 188 1344
2019-06-22 05:58:03 GMT 55.707642 -4.422247 7,425 150 186 1408
2019-06-22 05:58:00 GMT 55.709530 -4.424143 7,375 150 186 1408
2019-06-22 05:57:56 GMT 55.712322 -4.426975 7,275 150 186 1408
2019-06-22 05:57:53 GMT 55.714508 -4.429238 7,200 150 186 1344
2019-06-22 05:57:50 GMT 55.716980 -4.431818 7,150 150 186 1344
2019-06-22 05:57:46 GMT 55.719406 -4.434232 7,050 149 185 1280
2019-06-22 05:57:43 GMT 55.722061 -4.436978 6,300 150 184 1280
2019-06-22 05:57:40 GMT 55.724892 -4.439850 6,300 150 184 1280
2019-06-22 05:57:36 GMT 55.726894 -4.441910 6,850 150 183 1280
2019-06-22 05:57:33 GMT 55.729591 -4.444656 6,675 150 179 1344
2019-06-22 05:57:30 GMT 55.731491 -4.446550 6,300 150 181 1344
2019-06-22 05:57:27 GMT 55.734295 -4.449377 6,625 150 180 1344
2019-06-22 05:57:22 GMT 55.737030 -4.452209 6,525 150 180 1344
2019-06-22 05:57:19 GMT 55.739510 -4.454699 6,475 150 179 1344
2019-06-22 05:57:16 GMT 55.741791 -4.457016 6,425 150 179 1344
2019-06-22 05:57:12 GMT 55.744720 -4.460020 5,850 150 177 1344
2019-06-22 05:57:09 GMT 55.746826 -4.462114 6,225 150 178 1408
2019-06-22 05:57:05 GMT 55.749435 -4.464777 6,125 150 177 1344
2019-06-22 05:57:02 GMT 55.751953 -4.467357 5,850 149 174 1600
2019-06-22 05:56:59 GMT 55.754128 -4.469633 5,975 149 176 1344
2019-06-22 05:56:55 GMT 55.756546 -4.472122 5,900 149 175 1408
2019-06-22 05:56:49 GMT 55.761520 -4.477345 5,725 148 174 1728
2019-06-22 05:56:45 GMT 55.763718 -4.479842 5,650 145 175 1664
2019-06-22 05:56:41 GMT 55.765823 -4.482755 5,550 135 179 1472
2019-06-22 05:56:38 GMT 55.767952 -4.486885 5,425 124 182 1536
2019-06-22 05:56:35 GMT 55.769394 -4.490747 5,375 119 183 1536
2019-06-22 05:56:31 GMT 55.770840 -4.495640 5,300 116 184 1536
2019-06-22 05:56:28 GMT 55.772095 -4.500233 5,225 116 184 1536
2019-06-22 05:56:25 GMT 55.773258 -4.504309 5,175 116 184 1472
2019-06-22 05:56:18 GMT 55.776096 -4.514179 4,950 118 184 1344
2019-06-22 05:56:14 GMT 55.777355 -4.518299 4,875 119 183 1280
2019-06-22 05:56:08 GMT 55.780380 -4.526882 4,700 124 181 1216
2019-06-22 05:56:05 GMT 55.781776 -4.530487 4,550 126 180 1216
2019-06-22 05:55:57 GMT 55.785873 -4.539268 4,450 135 176 1472
2019-06-22 05:55:54 GMT 55.787876 -4.542761 4,425 138 175 1472
2019-06-22 05:55:47 GMT 55.792145 -4.548340 4,250 150 172 1216
2019-06-22 05:55:44 GMT 55.794300 -4.550228 4,200 157 171 960
2019-06-22 05:55:37 GMT 55.799702 -4.552803 4,075 174 164 1088
2019-06-22 05:55:34 GMT 55.801987 -4.552917 4,025 183 162 1216
2019-06-22 05:55:29 GMT 55.806171 -4.551516 3,900 200 159 1216
2019-06-22 05:55:26 GMT 55.807434 -4.550587 3,875 214 157 1216
2019-06-22 05:55:23 GMT 55.809311 -4.548590 3,800 219 156 1152
2019-06-22 05:55:17 GMT 55.812782 -4.543447 3,675 223 154 1152
2019-06-22 05:55:13 GMT 55.815250 -4.539328 3,600 223 152 1152
2019-06-22 05:55:07 GMT 55.818462 -4.534178 3,475 223 149 1088
2019-06-22 05:55:04 GMT 55.819748 -4.532027 3,400 223 147 832
2019-06-22 05:54:56 GMT 55.823502 -4.525785 3,325 224 140 576
2019-06-22 05:54:52 GMT 55.825211 -4.523020 3,325 224 138 640
2019-06-22 05:54:46 GMT 55.827911 -4.518471 3,150 223 125 1280
2019-06-22 05:54:43 GMT 55.829353 -4.516068 3,150 223 125 1152
2019-06-22 05:54:36 GMT 55.832474 -4.510970 2,875 223 121 1408
2019-06-22 05:54:32 GMT 55.833618 -4.509139 2,925 223 120 1280
2019-06-22 05:54:25 GMT 55.836895 -4.503880 2,725 223 120 1344
2019-06-22 05:54:22 GMT 55.838150 -4.501814 2,675 223 119 1408
2019-06-22 05:54:15 GMT 55.841133 -4.496927 2,500 223 117 1856
2019-06-22 05:54:12 GMT 55.841995 -4.495406 2,425 224 118 1920
2019-06-22 05:54:03 GMT 55.845787 -4.489031 2,075 225 123 1024
2019-06-22 05:53:56 GMT 55.848404 -4.484419 1,975 226 118 1024
2019-06-22 05:53:53 GMT 55.850006 -4.481506 1,950 227 115 1216
2019-06-22 05:53:42 GMT 55.853748 -4.474182 1,725 231 110 1472
2019-06-22 05:53:35 GMT 55.855888 -4.469461 1,550 233 109 1792
2019-06-22 05:53:32 GMT 55.856873 -4.467108 1,475 237 111 2304
2019-06-22 05:53:25 GMT 55.859009 -4.461651 1,175 237 110 2304
2019-06-22 05:53:17 GMT 55.861038 -4.456121 900 238 115 2240
2019-06-22 05:53:12 GMT 55.862686 -4.451780 700 235 118 1984
2019-06-22 05:53:07 GMT 55.864197 -4.448131 550 230 119 1792
2019-06-22 05:53:04 GMT 55.865246 -4.446115 450 228 119 1920
2019-06-22 05:53:01 GMT 55.866394 -4.443886 350 227 118 2112
2019-06-22 05:52:54 GMT 55.869156 -4.438734 100 227 121 2112
2019-06-22 05:52:50 GMT 55.870506 -4.436073 -25 228 125 1728
2019-06-22 05:52:43 GMT 55.873169 -4.430986 -200 227 123 128
2019-06-22 05:52:34 GMT 55.876705 -4.424348 0 227 90
2019-06-22 05:52:21 GMT 55.879059 -4.419916 0 225 24
2019-06-22 05:52:10 GMT 55.879234 -4.419594 0 241 0
2019-06-22 05:52:03 GMT 55.879303 -4.419521 0 241 7
2019-06-22 05:51:58 GMT 55.879292 -4.419208 0 309 12
2019-06-22 05:51:50 GMT 55.878857 -4.418585 0 340 17
2019-06-22 05:51:29 GMT 55.877407 -4.419293 0 45 19
2019-06-22 05:51:18 GMT 55.876717 -4.420582 0 45 20
2019-06-22 05:51:07 GMT 55.876007 -4.421893 0 47 20
2019-06-22 05:50:59 GMT 55.875534 -4.422770 0 45 21
2019-06-22 05:50:50 GMT 55.874954 -4.423849 0 45 20
2019-06-22 05:50:40 GMT 55.874325 -4.425035 0 47 19
2019-06-22 05:50:30 GMT 55.873718 -4.425971 0 25 18
2019-06-22 05:50:17 GMT 55.872730 -4.426632 0 19 19
2019-06-22 05:48:34 GMT 55.867783 -4.432855 0 0 13
2019-06-22 05:48:29 GMT 55.867447 -4.432726 0 343 13
2019-06-22 05:48:09 GMT 55.866478 -4.432232 0 343 10
2019-06-22 05:48:03 GMT 55.866234 -4.432104 0 345 8
2019-06-22 05:46:14 GMT 55.866074 -4.432047 0 1

Making use of Plane Finder data

You are free to use the raw flight data, aircraft information and images provided in this report for your own purposes provided the data is correctly attributed to Plane Finder. We ask that you please credit Plane Finder and link to planefinder.net in close proximity to the content.

Optionally one of the following logos (no smaller then 150x24px) can be used and must link to planefinder.net

Embedding the Plane Finder map

You are welcome to embed the Plane Finder playback map on your website to offer visitors a more interactive experience. We suggest using the following HTML code:

<iframe src="//planefinder.net/data/report/BE881-ES-ATA-7700-squawk-2019-06-22/map" width="800" height="600" seamless="seamless"></iframe>

Where our data comes from

Plane Finder has a global network of data feeds and antenna radars that receive data broadcast directly from aircraft. The primary technologies used are ADS-B and MLAT. We also show feeds from the FAA and a FLARM glider feed.

Click here to find out more about the Plane Finder network.

How we collect our data